<?xml version="1.0" encoding="UTF-8" standalone="no" ?>
<gpx xmlns="http://www.topografix.com/GPX/1/1" xmlns:xsi="http://www.w3.org/2001/XMLSchema-instance" xsi:schemaLocation="http://www.topografix.com/GPX/1/1 http://www.topografix.com/GPX/1/1/gpx.xsd" version="1.1" creator="VisuGPX - https://www.visugpx.com">
  <metadata>
    <name>Bois de Baron</name>
    <desc><![CDATA[Petite sortie sympa dans un bois, proche de L'orne et accessible depuis Caen]]></desc>
  </metadata>
  <trk>
    <name><![CDATA[Bois de Baron_2]]></name>
    <trkseg>
      <trkpt lat="49.14522" lon="-0.4713">
        <ele>50</ele>
        <time>2021-02-17T06:12:20Z</time>
      </trkpt>
      <trkpt lat="49.14525" lon="-0.47155">
        <ele>50</ele>
        <time>2021-02-17T06:12:16Z</time>
      </trkpt>
      <trkpt lat="49.14528" lon="-0.47174">
        <ele>49</ele>
        <time>2021-02-17T06:12:13Z</time>
      </trkpt>
      <trkpt lat="49.14531" lon="-0.47192">
        <ele>48</ele>
        <time>2021-02-17T06:12:10Z</time>
      </trkpt>
      <trkpt lat="49.14531" lon="-0.47213">
        <ele>47</ele>
        <time>2021-02-17T06:12:07Z</time>
      </trkpt>
      <trkpt lat="49.14529" lon="-0.47233">
        <ele>46</ele>
        <time>2021-02-17T06:12:04Z</time>
      </trkpt>
      <trkpt lat="49.14525" lon="-0.47253">
        <ele>46</ele>
        <time>2021-02-17T06:12:01Z</time>
      </trkpt>
      <trkpt lat="49.14508" lon="-0.47293">
        <ele>46</ele>
        <time>2021-02-17T06:11:53Z</time>
      </trkpt>
      <trkpt lat="49.14514" lon="-0.47309">
        <ele>43</ele>
        <time>2021-02-17T06:11:51Z</time>
      </trkpt>
      <trkpt lat="49.14513" lon="-0.47324">
        <ele>42</ele>
        <time>2021-02-17T06:11:48Z</time>
      </trkpt>
      <trkpt lat="49.14499" lon="-0.47334">
        <ele>42</ele>
        <time>2021-02-17T06:11:45Z</time>
      </trkpt>
      <trkpt lat="49.14489" lon="-0.47336">
        <ele>45</ele>
        <time>2021-02-17T06:11:42Z</time>
      </trkpt>
      <trkpt lat="49.14476" lon="-0.47347">
        <ele>47</ele>
        <time>2021-02-17T06:11:39Z</time>
      </trkpt>
      <trkpt lat="49.14463" lon="-0.47364">
        <ele>49</ele>
        <time>2021-02-17T06:11:35Z</time>
      </trkpt>
      <trkpt lat="49.14455" lon="-0.47389">
        <ele>49</ele>
        <time>2021-02-17T06:11:31Z</time>
      </trkpt>
      <trkpt lat="49.14438" lon="-0.47427">
        <ele>49</ele>
        <time>2021-02-17T06:11:24Z</time>
      </trkpt>
      <trkpt lat="49.14431" lon="-0.47441">
        <ele>50</ele>
        <time>2021-02-17T06:11:21Z</time>
      </trkpt>
      <trkpt lat="49.14423" lon="-0.47455">
        <ele>50</ele>
        <time>2021-02-17T06:11:18Z</time>
      </trkpt>
      <trkpt lat="49.14417" lon="-0.47471">
        <ele>49</ele>
        <time>2021-02-17T06:11:15Z</time>
      </trkpt>
      <trkpt lat="49.14411" lon="-0.4749">
        <ele>49</ele>
        <time>2021-02-17T06:11:12Z</time>
      </trkpt>
      <trkpt lat="49.14408" lon="-0.47511">
        <ele>48</ele>
        <time>2021-02-17T06:11:09Z</time>
      </trkpt>
      <trkpt lat="49.14401" lon="-0.47542">
        <ele>50</ele>
        <time>2021-02-17T06:11:04Z</time>
      </trkpt>
      <trkpt lat="49.14396" lon="-0.47564">
        <ele>51</ele>
        <time>2021-02-17T06:11:00Z</time>
      </trkpt>
      <trkpt lat="49.14389" lon="-0.47582">
        <ele>52</ele>
        <time>2021-02-17T06:10:57Z</time>
      </trkpt>
      <trkpt lat="49.14384" lon="-0.47605">
        <ele>53</ele>
        <time>2021-02-17T06:10:53Z</time>
      </trkpt>
      <trkpt lat="49.14377" lon="-0.47626">
        <ele>54</ele>
        <time>2021-02-17T06:10:50Z</time>
      </trkpt>
      <trkpt lat="49.1437" lon="-0.4765">
        <ele>55</ele>
        <time>2021-02-17T06:10:46Z</time>
      </trkpt>
      <trkpt lat="49.14364" lon="-0.47667">
        <ele>56</ele>
        <time>2021-02-17T06:10:43Z</time>
      </trkpt>
      <trkpt lat="49.14353" lon="-0.47694">
        <ele>58</ele>
        <time>2021-02-17T06:10:38Z</time>
      </trkpt>
      <trkpt lat="49.14344" lon="-0.47716">
        <ele>60</ele>
        <time>2021-02-17T06:10:34Z</time>
      </trkpt>
      <trkpt lat="49.14336" lon="-0.47738">
        <ele>61</ele>
        <time>2021-02-17T06:10:30Z</time>
      </trkpt>
      <trkpt lat="49.1433" lon="-0.47755">
        <ele>61</ele>
        <time>2021-02-17T06:10:27Z</time>
      </trkpt>
      <trkpt lat="49.14323" lon="-0.47784">
        <ele>59</ele>
        <time>2021-02-17T06:10:22Z</time>
      </trkpt>
      <trkpt lat="49.14321" lon="-0.47798">
        <ele>58</ele>
        <time>2021-02-17T06:10:20Z</time>
      </trkpt>
      <trkpt lat="49.14309" lon="-0.478">
        <ele>59</ele>
        <time>2021-02-17T06:10:17Z</time>
      </trkpt>
      <trkpt lat="49.14292" lon="-0.47797">
        <ele>60</ele>
        <time>2021-02-17T06:10:13Z</time>
      </trkpt>
      <trkpt lat="49.14282" lon="-0.47793">
        <ele>61</ele>
        <time>2021-02-17T06:10:11Z</time>
      </trkpt>
      <trkpt lat="49.14276" lon="-0.47776">
        <ele>63</ele>
        <time>2021-02-17T06:10:08Z</time>
      </trkpt>
      <trkpt lat="49.14283" lon="-0.47762">
        <ele>64</ele>
        <time>2021-02-17T06:10:05Z</time>
      </trkpt>
      <trkpt lat="49.14289" lon="-0.47744">
        <ele>65</ele>
        <time>2021-02-17T06:10:02Z</time>
      </trkpt>
      <trkpt lat="49.14289" lon="-0.47724">
        <ele>66</ele>
        <time>2021-02-17T06:09:59Z</time>
      </trkpt>
      <trkpt lat="49.14289" lon="-0.47704">
        <ele>67</ele>
        <time>2021-02-17T06:09:56Z</time>
      </trkpt>
      <trkpt lat="49.14286" lon="-0.47681">
        <ele>68</ele>
        <time>2021-02-17T06:09:52Z</time>
      </trkpt>
      <trkpt lat="49.14278" lon="-0.47661">
        <ele>70</ele>
        <time>2021-02-17T06:09:49Z</time>
      </trkpt>
      <trkpt lat="49.14267" lon="-0.47649">
        <ele>71</ele>
        <time>2021-02-17T06:09:46Z</time>
      </trkpt>
      <trkpt lat="49.14258" lon="-0.47645">
        <ele>72</ele>
        <time>2021-02-17T06:09:44Z</time>
      </trkpt>
      <trkpt lat="49.14249" lon="-0.4763">
        <ele>73</ele>
        <time>2021-02-17T06:09:40Z</time>
      </trkpt>
      <trkpt lat="49.14248" lon="-0.47611">
        <ele>74</ele>
        <time>2021-02-17T06:09:38Z</time>
      </trkpt>
      <trkpt lat="49.14251" lon="-0.47594">
        <ele>75</ele>
        <time>2021-02-17T06:09:35Z</time>
      </trkpt>
      <trkpt lat="49.14256" lon="-0.47577">
        <ele>75</ele>
        <time>2021-02-17T06:09:32Z</time>
      </trkpt>
      <trkpt lat="49.14265" lon="-0.47579">
        <ele>74</ele>
        <time>2021-02-17T06:09:30Z</time>
      </trkpt>
      <trkpt lat="49.14273" lon="-0.47586">
        <ele>74</ele>
        <time>2021-02-17T06:09:28Z</time>
      </trkpt>
      <trkpt lat="49.14282" lon="-0.47579">
        <ele>74</ele>
        <time>2021-02-17T06:09:25Z</time>
      </trkpt>
      <trkpt lat="49.14286" lon="-0.47579">
        <ele>73</ele>
        <time>2021-02-17T06:09:24Z</time>
      </trkpt>
      <trkpt lat="49.14276" lon="-0.47576">
        <ele>74</ele>
        <time>2021-02-17T06:09:22Z</time>
      </trkpt>
      <trkpt lat="49.14266" lon="-0.47578">
        <ele>74</ele>
        <time>2021-02-17T06:09:20Z</time>
      </trkpt>
      <trkpt lat="49.14255" lon="-0.47566">
        <ele>75</ele>
        <time>2021-02-17T06:09:17Z</time>
      </trkpt>
      <trkpt lat="49.14246" lon="-0.47551">
        <ele>76</ele>
        <time>2021-02-17T06:09:13Z</time>
      </trkpt>
      <trkpt lat="49.14246" lon="-0.47534">
        <ele>77</ele>
        <time>2021-02-17T06:09:11Z</time>
      </trkpt>
      <trkpt lat="49.14244" lon="-0.47516">
        <ele>77</ele>
        <time>2021-02-17T06:09:08Z</time>
      </trkpt>
      <trkpt lat="49.14236" lon="-0.47496">
        <ele>78</ele>
        <time>2021-02-17T06:09:04Z</time>
      </trkpt>
      <trkpt lat="49.14229" lon="-0.47477">
        <ele>78</ele>
        <time>2021-02-17T06:09:01Z</time>
      </trkpt>
      <trkpt lat="49.1423" lon="-0.47457">
        <ele>79</ele>
        <time>2021-02-17T06:08:58Z</time>
      </trkpt>
      <trkpt lat="49.14228" lon="-0.47438">
        <ele>79</ele>
        <time>2021-02-17T06:08:55Z</time>
      </trkpt>
      <trkpt lat="49.14223" lon="-0.47421">
        <ele>80</ele>
        <time>2021-02-17T06:08:52Z</time>
      </trkpt>
      <trkpt lat="49.14214" lon="-0.47402">
        <ele>80</ele>
        <time>2021-02-17T06:08:49Z</time>
      </trkpt>
      <trkpt lat="49.14206" lon="-0.47391">
        <ele>79</ele>
        <time>2021-02-17T06:08:46Z</time>
      </trkpt>
      <trkpt lat="49.142" lon="-0.4738">
        <ele>79</ele>
        <time>2021-02-17T06:08:44Z</time>
      </trkpt>
      <trkpt lat="49.14192" lon="-0.47368">
        <ele>80</ele>
        <time>2021-02-17T06:08:41Z</time>
      </trkpt>
      <trkpt lat="49.14175" lon="-0.47337">
        <ele>80</ele>
        <time>2021-02-17T06:08:35Z</time>
      </trkpt>
      <trkpt lat="49.14166" lon="-0.4733">
        <ele>80</ele>
        <time>2021-02-17T06:08:33Z</time>
      </trkpt>
      <trkpt lat="49.14156" lon="-0.47326">
        <ele>79</ele>
        <time>2021-02-17T06:08:30Z</time>
      </trkpt>
      <trkpt lat="49.14136" lon="-0.47314">
        <ele>79</ele>
        <time>2021-02-17T06:08:25Z</time>
      </trkpt>
      <trkpt lat="49.14123" lon="-0.47308">
        <ele>78</ele>
        <time>2021-02-17T06:08:22Z</time>
      </trkpt>
      <trkpt lat="49.14111" lon="-0.47301">
        <ele>77</ele>
        <time>2021-02-17T06:08:19Z</time>
      </trkpt>
      <trkpt lat="49.141" lon="-0.47297">
        <ele>77</ele>
        <time>2021-02-17T06:08:17Z</time>
      </trkpt>
      <trkpt lat="49.14077" lon="-0.47291">
        <ele>77</ele>
        <time>2021-02-17T06:08:11Z</time>
      </trkpt>
      <trkpt lat="49.14064" lon="-0.47287">
        <ele>77</ele>
        <time>2021-02-17T06:08:08Z</time>
      </trkpt>
      <trkpt lat="49.14057" lon="-0.47297">
        <ele>77</ele>
        <time>2021-02-17T06:08:06Z</time>
      </trkpt>
      <trkpt lat="49.14059" lon="-0.47317">
        <ele>77</ele>
        <time>2021-02-17T06:08:03Z</time>
      </trkpt>
      <trkpt lat="49.14066" lon="-0.47332">
        <ele>77</ele>
        <time>2021-02-17T06:08:00Z</time>
      </trkpt>
      <trkpt lat="49.14073" lon="-0.47346">
        <ele>77</ele>
        <time>2021-02-17T06:07:57Z</time>
      </trkpt>
      <trkpt lat="49.14084" lon="-0.47359">
        <ele>78</ele>
        <time>2021-02-17T06:07:54Z</time>
      </trkpt>
      <trkpt lat="49.14091" lon="-0.47372">
        <ele>78</ele>
        <time>2021-02-17T06:07:51Z</time>
      </trkpt>
      <trkpt lat="49.14099" lon="-0.47389">
        <ele>79</ele>
        <time>2021-02-17T06:07:48Z</time>
      </trkpt>
      <trkpt lat="49.14105" lon="-0.47406">
        <ele>79</ele>
        <time>2021-02-17T06:07:45Z</time>
      </trkpt>
      <trkpt lat="49.14113" lon="-0.47419">
        <ele>79</ele>
        <time>2021-02-17T06:07:42Z</time>
      </trkpt>
      <trkpt lat="49.14123" lon="-0.47435">
        <ele>79</ele>
        <time>2021-02-17T06:07:39Z</time>
      </trkpt>
      <trkpt lat="49.14136" lon="-0.47445">
        <ele>78</ele>
        <time>2021-02-17T06:07:36Z</time>
      </trkpt>
      <trkpt lat="49.14142" lon="-0.47458">
        <ele>78</ele>
        <time>2021-02-17T06:07:33Z</time>
      </trkpt>
      <trkpt lat="49.1415" lon="-0.47471">
        <ele>77</ele>
        <time>2021-02-17T06:07:31Z</time>
      </trkpt>
      <trkpt lat="49.14154" lon="-0.47485">
        <ele>77</ele>
        <time>2021-02-17T06:07:28Z</time>
      </trkpt>
      <trkpt lat="49.14157" lon="-0.47503">
        <ele>76</ele>
        <time>2021-02-17T06:07:25Z</time>
      </trkpt>
      <trkpt lat="49.14158" lon="-0.47523">
        <ele>76</ele>
        <time>2021-02-17T06:07:22Z</time>
      </trkpt>
      <trkpt lat="49.14158" lon="-0.47539">
        <ele>76</ele>
        <time>2021-02-17T06:07:20Z</time>
      </trkpt>
      <trkpt lat="49.14156" lon="-0.47554">
        <ele>76</ele>
        <time>2021-02-17T06:07:18Z</time>
      </trkpt>
      <trkpt lat="49.14151" lon="-0.47568">
        <ele>76</ele>
        <time>2021-02-17T06:07:15Z</time>
      </trkpt>
      <trkpt lat="49.14138" lon="-0.47579">
        <ele>76</ele>
        <time>2021-02-17T06:07:12Z</time>
      </trkpt>
      <trkpt lat="49.14126" lon="-0.47578">
        <ele>77</ele>
        <time>2021-02-17T06:07:09Z</time>
      </trkpt>
      <trkpt lat="49.14116" lon="-0.47573">
        <ele>77</ele>
        <time>2021-02-17T06:07:06Z</time>
      </trkpt>
      <trkpt lat="49.14104" lon="-0.47567">
        <ele>77</ele>
        <time>2021-02-17T06:07:03Z</time>
      </trkpt>
      <trkpt lat="49.14079" lon="-0.47558">
        <ele>79</ele>
        <time>2021-02-17T06:06:57Z</time>
      </trkpt>
      <trkpt lat="49.14067" lon="-0.47552">
        <ele>79</ele>
        <time>2021-02-17T06:06:54Z</time>
      </trkpt>
      <trkpt lat="49.14054" lon="-0.47548">
        <ele>80</ele>
        <time>2021-02-17T06:06:51Z</time>
      </trkpt>
      <trkpt lat="49.14026" lon="-0.47537">
        <ele>81</ele>
        <time>2021-02-17T06:06:45Z</time>
      </trkpt>
      <trkpt lat="49.13999" lon="-0.47525">
        <ele>82</ele>
        <time>2021-02-17T06:06:38Z</time>
      </trkpt>
      <trkpt lat="49.13986" lon="-0.47518">
        <ele>83</ele>
        <time>2021-02-17T06:06:35Z</time>
      </trkpt>
      <trkpt lat="49.13928" lon="-0.47491">
        <ele>85</ele>
        <time>2021-02-17T06:06:21Z</time>
      </trkpt>
      <trkpt lat="49.13873" lon="-0.4747">
        <ele>85</ele>
        <time>2021-02-17T06:06:07Z</time>
      </trkpt>
      <trkpt lat="49.13851" lon="-0.47461">
        <ele>84</ele>
        <time>2021-02-17T06:06:02Z</time>
      </trkpt>
      <trkpt lat="49.13817" lon="-0.47448">
        <ele>83</ele>
        <time>2021-02-17T06:05:54Z</time>
      </trkpt>
      <trkpt lat="49.13806" lon="-0.47443">
        <ele>83</ele>
        <time>2021-02-17T06:05:51Z</time>
      </trkpt>
      <trkpt lat="49.13795" lon="-0.47438">
        <ele>83</ele>
        <time>2021-02-17T06:05:49Z</time>
      </trkpt>
      <trkpt lat="49.13784" lon="-0.47431">
        <ele>83</ele>
        <time>2021-02-17T06:05:46Z</time>
      </trkpt>
      <trkpt lat="49.13775" lon="-0.47423">
        <ele>83</ele>
        <time>2021-02-17T06:05:43Z</time>
      </trkpt>
      <trkpt lat="49.13763" lon="-0.47421">
        <ele>83</ele>
        <time>2021-02-17T06:05:41Z</time>
      </trkpt>
      <trkpt lat="49.13701" lon="-0.47471">
        <ele>83</ele>
        <time>2021-02-17T06:05:24Z</time>
      </trkpt>
      <trkpt lat="49.1369" lon="-0.4748">
        <ele>83</ele>
        <time>2021-02-17T06:05:21Z</time>
      </trkpt>
      <trkpt lat="49.13648" lon="-0.47507">
        <ele>83</ele>
        <time>2021-02-17T06:05:11Z</time>
      </trkpt>
      <trkpt lat="49.13585" lon="-0.47554">
        <ele>84</ele>
        <time>2021-02-17T06:04:54Z</time>
      </trkpt>
      <trkpt lat="49.13577" lon="-0.4756">
        <ele>84</ele>
        <time>2021-02-17T06:04:52Z</time>
      </trkpt>
      <trkpt lat="49.13552" lon="-0.47577">
        <ele>83</ele>
        <time>2021-02-17T06:04:46Z</time>
      </trkpt>
      <trkpt lat="49.1354" lon="-0.47583">
        <ele>82</ele>
        <time>2021-02-17T06:04:43Z</time>
      </trkpt>
      <trkpt lat="49.13535" lon="-0.47593">
        <ele>82</ele>
        <time>2021-02-17T06:04:41Z</time>
      </trkpt>
      <trkpt lat="49.13547" lon="-0.476">
        <ele>82</ele>
        <time>2021-02-17T06:04:38Z</time>
      </trkpt>
      <trkpt lat="49.13559" lon="-0.47606">
        <ele>83</ele>
        <time>2021-02-17T06:04:35Z</time>
      </trkpt>
      <trkpt lat="49.13571" lon="-0.47611">
        <ele>83</ele>
        <time>2021-02-17T06:04:32Z</time>
      </trkpt>
      <trkpt lat="49.13608" lon="-0.47625">
        <ele>84</ele>
        <time>2021-02-17T06:04:23Z</time>
      </trkpt>
      <trkpt lat="49.13619" lon="-0.47631">
        <ele>84</ele>
        <time>2021-02-17T06:04:20Z</time>
      </trkpt>
      <trkpt lat="49.1363" lon="-0.47635">
        <ele>84</ele>
        <time>2021-02-17T06:04:18Z</time>
      </trkpt>
      <trkpt lat="49.13661" lon="-0.47652">
        <ele>84</ele>
        <time>2021-02-17T06:04:10Z</time>
      </trkpt>
      <trkpt lat="49.13673" lon="-0.47657">
        <ele>84</ele>
        <time>2021-02-17T06:04:07Z</time>
      </trkpt>
      <trkpt lat="49.13684" lon="-0.47663">
        <ele>85</ele>
        <time>2021-02-17T06:04:04Z</time>
      </trkpt>
      <trkpt lat="49.13695" lon="-0.47669">
        <ele>85</ele>
        <time>2021-02-17T06:04:02Z</time>
      </trkpt>
      <trkpt lat="49.13708" lon="-0.4767">
        <ele>86</ele>
        <time>2021-02-17T06:03:59Z</time>
      </trkpt>
      <trkpt lat="49.13725" lon="-0.47677">
        <ele>87</ele>
        <time>2021-02-17T06:03:55Z</time>
      </trkpt>
      <trkpt lat="49.13739" lon="-0.47687">
        <ele>87</ele>
        <time>2021-02-17T06:03:51Z</time>
      </trkpt>
      <trkpt lat="49.13754" lon="-0.47696">
        <ele>88</ele>
        <time>2021-02-17T06:03:47Z</time>
      </trkpt>
      <trkpt lat="49.13797" lon="-0.47724">
        <ele>89</ele>
        <time>2021-02-17T06:03:36Z</time>
      </trkpt>
      <trkpt lat="49.13821" lon="-0.47745">
        <ele>90</ele>
        <time>2021-02-17T06:03:30Z</time>
      </trkpt>
      <trkpt lat="49.13832" lon="-0.47756">
        <ele>91</ele>
        <time>2021-02-17T06:03:27Z</time>
      </trkpt>
      <trkpt lat="49.13845" lon="-0.47769">
        <ele>91</ele>
        <time>2021-02-17T06:03:23Z</time>
      </trkpt>
      <trkpt lat="49.13848" lon="-0.47784">
        <ele>91</ele>
        <time>2021-02-17T06:03:21Z</time>
      </trkpt>
      <trkpt lat="49.13859" lon="-0.47785">
        <ele>90</ele>
        <time>2021-02-17T06:03:18Z</time>
      </trkpt>
      <trkpt lat="49.13894" lon="-0.4776">
        <ele>89</ele>
        <time>2021-02-17T06:03:09Z</time>
      </trkpt>
      <trkpt lat="49.13905" lon="-0.47758">
        <ele>89</ele>
        <time>2021-02-17T06:03:07Z</time>
      </trkpt>
      <trkpt lat="49.13916" lon="-0.47753">
        <ele>89</ele>
        <time>2021-02-17T06:03:04Z</time>
      </trkpt>
      <trkpt lat="49.13941" lon="-0.4774">
        <ele>88</ele>
        <time>2021-02-17T06:02:58Z</time>
      </trkpt>
      <trkpt lat="49.13963" lon="-0.47725">
        <ele>87</ele>
        <time>2021-02-17T06:02:52Z</time>
      </trkpt>
      <trkpt lat="49.13988" lon="-0.47714">
        <ele>86</ele>
        <time>2021-02-17T06:02:46Z</time>
      </trkpt>
      <trkpt lat="49.14011" lon="-0.477">
        <ele>84</ele>
        <time>2021-02-17T06:02:40Z</time>
      </trkpt>
      <trkpt lat="49.14028" lon="-0.47693">
        <ele>83</ele>
        <time>2021-02-17T06:02:36Z</time>
      </trkpt>
      <trkpt lat="49.14042" lon="-0.47687">
        <ele>82</ele>
        <time>2021-02-17T06:02:33Z</time>
      </trkpt>
      <trkpt lat="49.14055" lon="-0.47689">
        <ele>81</ele>
        <time>2021-02-17T06:02:30Z</time>
      </trkpt>
      <trkpt lat="49.14066" lon="-0.47695">
        <ele>81</ele>
        <time>2021-02-17T06:02:27Z</time>
      </trkpt>
      <trkpt lat="49.14077" lon="-0.477">
        <ele>81</ele>
        <time>2021-02-17T06:02:24Z</time>
      </trkpt>
      <trkpt lat="49.14089" lon="-0.47706">
        <ele>80</ele>
        <time>2021-02-17T06:02:21Z</time>
      </trkpt>
      <trkpt lat="49.141" lon="-0.47709">
        <ele>79</ele>
        <time>2021-02-17T06:02:19Z</time>
      </trkpt>
      <trkpt lat="49.14112" lon="-0.47711">
        <ele>78</ele>
        <time>2021-02-17T06:02:16Z</time>
      </trkpt>
      <trkpt lat="49.14127" lon="-0.47718">
        <ele>77</ele>
        <time>2021-02-17T06:02:12Z</time>
      </trkpt>
      <trkpt lat="49.14143" lon="-0.47726">
        <ele>76</ele>
        <time>2021-02-17T06:02:08Z</time>
      </trkpt>
      <trkpt lat="49.1416" lon="-0.47736">
        <ele>75</ele>
        <time>2021-02-17T06:02:04Z</time>
      </trkpt>
      <trkpt lat="49.14175" lon="-0.47742">
        <ele>73</ele>
        <time>2021-02-17T06:02:00Z</time>
      </trkpt>
      <trkpt lat="49.14184" lon="-0.4775">
        <ele>73</ele>
        <time>2021-02-17T06:01:58Z</time>
      </trkpt>
      <trkpt lat="49.14193" lon="-0.47766">
        <ele>71</ele>
        <time>2021-02-17T06:01:55Z</time>
      </trkpt>
      <trkpt lat="49.14198" lon="-0.47785">
        <ele>70</ele>
        <time>2021-02-17T06:01:52Z</time>
      </trkpt>
      <trkpt lat="49.14199" lon="-0.47793">
        <ele>69</ele>
        <time>2021-02-17T06:01:50Z</time>
      </trkpt>
      <trkpt lat="49.14197" lon="-0.47793">
        <ele>69</ele>
        <time>2021-02-17T06:01:50Z</time>
      </trkpt>
      <trkpt lat="49.14193" lon="-0.47826">
        <ele>68</ele>
        <time>2021-02-17T06:01:45Z</time>
      </trkpt>
      <trkpt lat="49.14188" lon="-0.47856">
        <ele>68</ele>
        <time>2021-02-17T06:01:40Z</time>
      </trkpt>
      <trkpt lat="49.14188" lon="-0.47873">
        <ele>69</ele>
        <time>2021-02-17T06:01:37Z</time>
      </trkpt>
      <trkpt lat="49.14191" lon="-0.4789">
        <ele>68</ele>
        <time>2021-02-17T06:01:35Z</time>
      </trkpt>
      <trkpt lat="49.14193" lon="-0.479">
        <ele>68</ele>
        <time>2021-02-17T06:01:33Z</time>
      </trkpt>
      <trkpt lat="49.14199" lon="-0.47907">
        <ele>66</ele>
        <time>2021-02-17T06:01:31Z</time>
      </trkpt>
      <trkpt lat="49.14204" lon="-0.47911">
        <ele>65</ele>
        <time>2021-02-17T06:01:30Z</time>
      </trkpt>
      <trkpt lat="49.14211" lon="-0.47915">
        <ele>64</ele>
        <time>2021-02-17T06:01:28Z</time>
      </trkpt>
      <trkpt lat="49.14216" lon="-0.47921">
        <ele>63</ele>
        <time>2021-02-17T06:01:27Z</time>
      </trkpt>
      <trkpt lat="49.14223" lon="-0.47926">
        <ele>62</ele>
        <time>2021-02-17T06:01:25Z</time>
      </trkpt>
      <trkpt lat="49.14223" lon="-0.47943">
        <ele>62</ele>
        <time>2021-02-17T06:01:22Z</time>
      </trkpt>
      <trkpt lat="49.14228" lon="-0.47958">
        <ele>61</ele>
        <time>2021-02-17T06:01:20Z</time>
      </trkpt>
      <trkpt lat="49.14235" lon="-0.47963">
        <ele>59</ele>
        <time>2021-02-17T06:01:18Z</time>
      </trkpt>
      <trkpt lat="49.14244" lon="-0.47966">
        <ele>57</ele>
        <time>2021-02-17T06:01:16Z</time>
      </trkpt>
      <trkpt lat="49.14242" lon="-0.47986">
        <ele>57</ele>
        <time>2021-02-17T06:01:13Z</time>
      </trkpt>
      <trkpt lat="49.14233" lon="-0.48012">
        <ele>59</ele>
        <time>2021-02-17T06:01:08Z</time>
      </trkpt>
      <trkpt lat="49.14223" lon="-0.48039">
        <ele>60</ele>
        <time>2021-02-17T06:01:04Z</time>
      </trkpt>
      <trkpt lat="49.14218" lon="-0.48063">
        <ele>61</ele>
        <time>2021-02-17T06:01:00Z</time>
      </trkpt>
      <trkpt lat="49.1421" lon="-0.48082">
        <ele>62</ele>
        <time>2021-02-17T06:00:56Z</time>
      </trkpt>
      <trkpt lat="49.14203" lon="-0.48101">
        <ele>62</ele>
        <time>2021-02-17T06:00:53Z</time>
      </trkpt>
      <trkpt lat="49.14198" lon="-0.48118">
        <ele>61</ele>
        <time>2021-02-17T06:00:50Z</time>
      </trkpt>
      <trkpt lat="49.1419" lon="-0.48135">
        <ele>61</ele>
        <time>2021-02-17T06:00:47Z</time>
      </trkpt>
      <trkpt lat="49.14182" lon="-0.48141">
        <ele>61</ele>
        <time>2021-02-17T06:00:45Z</time>
      </trkpt>
      <trkpt lat="49.14173" lon="-0.48147">
        <ele>62</ele>
        <time>2021-02-17T06:00:43Z</time>
      </trkpt>
      <trkpt lat="49.14163" lon="-0.4815">
        <ele>62</ele>
        <time>2021-02-17T06:00:40Z</time>
      </trkpt>
      <trkpt lat="49.14161" lon="-0.48114">
        <ele>67</ele>
        <time>2021-02-17T06:00:35Z</time>
      </trkpt>
      <trkpt lat="49.14165" lon="-0.48099">
        <ele>70</ele>
        <time>2021-02-17T06:00:32Z</time>
      </trkpt>
      <trkpt lat="49.1417" lon="-0.48088">
        <ele>71</ele>
        <time>2021-02-17T06:00:30Z</time>
      </trkpt>
      <trkpt lat="49.14174" lon="-0.4807">
        <ele>71</ele>
        <time>2021-02-17T06:00:27Z</time>
      </trkpt>
      <trkpt lat="49.1417" lon="-0.48049">
        <ele>73</ele>
        <time>2021-02-17T06:00:24Z</time>
      </trkpt>
      <trkpt lat="49.14171" lon="-0.48033">
        <ele>73</ele>
        <time>2021-02-17T06:00:21Z</time>
      </trkpt>
      <trkpt lat="49.1417" lon="-0.48012">
        <ele>75</ele>
        <time>2021-02-17T06:00:18Z</time>
      </trkpt>
      <trkpt lat="49.14168" lon="-0.47994">
        <ele>75</ele>
        <time>2021-02-17T06:00:15Z</time>
      </trkpt>
      <trkpt lat="49.14152" lon="-0.47982">
        <ele>76</ele>
        <time>2021-02-17T06:00:11Z</time>
      </trkpt>
      <trkpt lat="49.14142" lon="-0.4797">
        <ele>76</ele>
        <time>2021-02-17T06:00:08Z</time>
      </trkpt>
      <trkpt lat="49.14134" lon="-0.47951">
        <ele>76</ele>
        <time>2021-02-17T06:00:05Z</time>
      </trkpt>
      <trkpt lat="49.14121" lon="-0.4794">
        <ele>76</ele>
        <time>2021-02-17T06:00:01Z</time>
      </trkpt>
      <trkpt lat="49.14083" lon="-0.47937">
        <ele>78</ele>
        <time>2021-02-17T05:59:53Z</time>
      </trkpt>
      <trkpt lat="49.14061" lon="-0.47934">
        <ele>79</ele>
        <time>2021-02-17T05:59:47Z</time>
      </trkpt>
      <trkpt lat="49.14039" lon="-0.47931">
        <ele>80</ele>
        <time>2021-02-17T05:59:42Z</time>
      </trkpt>
      <trkpt lat="49.14019" lon="-0.47927">
        <ele>81</ele>
        <time>2021-02-17T05:59:37Z</time>
      </trkpt>
      <trkpt lat="49.13994" lon="-0.47935">
        <ele>83</ele>
        <time>2021-02-17T05:59:32Z</time>
      </trkpt>
      <trkpt lat="49.13978" lon="-0.47929">
        <ele>84</ele>
        <time>2021-02-17T05:59:28Z</time>
      </trkpt>
      <trkpt lat="49.13969" lon="-0.47941">
        <ele>84</ele>
        <time>2021-02-17T05:59:25Z</time>
      </trkpt>
      <trkpt lat="49.13958" lon="-0.47944">
        <ele>85</ele>
        <time>2021-02-17T05:59:22Z</time>
      </trkpt>
      <trkpt lat="49.13944" lon="-0.47945">
        <ele>86</ele>
        <time>2021-02-17T05:59:19Z</time>
      </trkpt>
      <trkpt lat="49.13932" lon="-0.47951">
        <ele>86</ele>
        <time>2021-02-17T05:59:16Z</time>
      </trkpt>
      <trkpt lat="49.13914" lon="-0.47957">
        <ele>87</ele>
        <time>2021-02-17T05:59:12Z</time>
      </trkpt>
      <trkpt lat="49.13902" lon="-0.47971">
        <ele>87</ele>
        <time>2021-02-17T05:59:08Z</time>
      </trkpt>
      <trkpt lat="49.1389" lon="-0.47967">
        <ele>87</ele>
        <time>2021-02-17T05:59:05Z</time>
      </trkpt>
      <trkpt lat="49.13867" lon="-0.47965">
        <ele>88</ele>
        <time>2021-02-17T05:59:00Z</time>
      </trkpt>
      <trkpt lat="49.1383" lon="-0.47978">
        <ele>88</ele>
        <time>2021-02-17T05:58:51Z</time>
      </trkpt>
      <trkpt lat="49.1382" lon="-0.47986">
        <ele>88</ele>
        <time>2021-02-17T05:58:48Z</time>
      </trkpt>
      <trkpt lat="49.13793" lon="-0.48009">
        <ele>87</ele>
        <time>2021-02-17T05:58:41Z</time>
      </trkpt>
      <trkpt lat="49.13777" lon="-0.48015">
        <ele>87</ele>
        <time>2021-02-17T05:58:37Z</time>
      </trkpt>
      <trkpt lat="49.13767" lon="-0.48022">
        <ele>87</ele>
        <time>2021-02-17T05:58:35Z</time>
      </trkpt>
      <trkpt lat="49.13754" lon="-0.48021">
        <ele>87</ele>
        <time>2021-02-17T05:58:32Z</time>
      </trkpt>
      <trkpt lat="49.13738" lon="-0.48016">
        <ele>86</ele>
        <time>2021-02-17T05:58:28Z</time>
      </trkpt>
      <trkpt lat="49.13727" lon="-0.48019">
        <ele>86</ele>
        <time>2021-02-17T05:58:25Z</time>
      </trkpt>
      <trkpt lat="49.13714" lon="-0.48015">
        <ele>85</ele>
        <time>2021-02-17T05:58:22Z</time>
      </trkpt>
      <trkpt lat="49.13701" lon="-0.48009">
        <ele>85</ele>
        <time>2021-02-17T05:58:19Z</time>
      </trkpt>
      <trkpt lat="49.13684" lon="-0.48023">
        <ele>84</ele>
        <time>2021-02-17T05:58:15Z</time>
      </trkpt>
      <trkpt lat="49.1368" lon="-0.48042">
        <ele>83</ele>
        <time>2021-02-17T05:58:12Z</time>
      </trkpt>
      <trkpt lat="49.1368" lon="-0.48061">
        <ele>82</ele>
        <time>2021-02-17T05:58:09Z</time>
      </trkpt>
      <trkpt lat="49.13683" lon="-0.48075">
        <ele>82</ele>
        <time>2021-02-17T05:58:06Z</time>
      </trkpt>
      <trkpt lat="49.13676" lon="-0.48085">
        <ele>80</ele>
        <time>2021-02-17T05:58:04Z</time>
      </trkpt>
      <trkpt lat="49.13665" lon="-0.48086">
        <ele>79</ele>
        <time>2021-02-17T05:58:02Z</time>
      </trkpt>
      <trkpt lat="49.13653" lon="-0.48089">
        <ele>78</ele>
        <time>2021-02-17T05:57:59Z</time>
      </trkpt>
      <trkpt lat="49.13642" lon="-0.48101">
        <ele>76</ele>
        <time>2021-02-17T05:57:56Z</time>
      </trkpt>
      <trkpt lat="49.1363" lon="-0.48105">
        <ele>76</ele>
        <time>2021-02-17T05:57:53Z</time>
      </trkpt>
      <trkpt lat="49.1362" lon="-0.48105">
        <ele>75</ele>
        <time>2021-02-17T05:57:50Z</time>
      </trkpt>
      <trkpt lat="49.13612" lon="-0.48112">
        <ele>75</ele>
        <time>2021-02-17T05:57:48Z</time>
      </trkpt>
      <trkpt lat="49.13608" lon="-0.48127">
        <ele>73</ele>
        <time>2021-02-17T05:57:46Z</time>
      </trkpt>
      <trkpt lat="49.13602" lon="-0.48147">
        <ele>72</ele>
        <time>2021-02-17T05:57:42Z</time>
      </trkpt>
      <trkpt lat="49.13596" lon="-0.48164">
        <ele>71</ele>
        <time>2021-02-17T05:57:39Z</time>
      </trkpt>
      <trkpt lat="49.13582" lon="-0.48173">
        <ele>71</ele>
        <time>2021-02-17T05:57:36Z</time>
      </trkpt>
      <trkpt lat="49.1357" lon="-0.48196">
        <ele>71</ele>
        <time>2021-02-17T05:57:31Z</time>
      </trkpt>
      <trkpt lat="49.13555" lon="-0.4823">
        <ele>70</ele>
        <time>2021-02-17T05:57:25Z</time>
      </trkpt>
      <trkpt lat="49.13554" lon="-0.48256">
        <ele>68</ele>
        <time>2021-02-17T05:57:21Z</time>
      </trkpt>
      <trkpt lat="49.13553" lon="-0.48285">
        <ele>67</ele>
        <time>2021-02-17T05:57:17Z</time>
      </trkpt>
      <trkpt lat="49.13551" lon="-0.48307">
        <ele>66</ele>
        <time>2021-02-17T05:57:13Z</time>
      </trkpt>
      <trkpt lat="49.13551" lon="-0.48335">
        <ele>64</ele>
        <time>2021-02-17T05:57:09Z</time>
      </trkpt>
      <trkpt lat="49.13555" lon="-0.48353">
        <ele>62</ele>
        <time>2021-02-17T05:57:06Z</time>
      </trkpt>
      <trkpt lat="49.13564" lon="-0.48368">
        <ele>59</ele>
        <time>2021-02-17T05:57:03Z</time>
      </trkpt>
      <trkpt lat="49.13569" lon="-0.48384">
        <ele>57</ele>
        <time>2021-02-17T05:57:00Z</time>
      </trkpt>
      <trkpt lat="49.13571" lon="-0.48402">
        <ele>56</ele>
        <time>2021-02-17T05:56:58Z</time>
      </trkpt>
      <trkpt lat="49.13576" lon="-0.48418">
        <ele>54</ele>
        <time>2021-02-17T05:56:55Z</time>
      </trkpt>
      <trkpt lat="49.1358" lon="-0.48437">
        <ele>51</ele>
        <time>2021-02-17T05:56:52Z</time>
      </trkpt>
      <trkpt lat="49.13577" lon="-0.48457">
        <ele>49</ele>
        <time>2021-02-17T05:56:49Z</time>
      </trkpt>
      <trkpt lat="49.13574" lon="-0.48474">
        <ele>48</ele>
        <time>2021-02-17T05:56:46Z</time>
      </trkpt>
      <trkpt lat="49.13559" lon="-0.4849">
        <ele>49</ele>
        <time>2021-02-17T05:56:42Z</time>
      </trkpt>
      <trkpt lat="49.13547" lon="-0.48498">
        <ele>50</ele>
        <time>2021-02-17T05:56:39Z</time>
      </trkpt>
      <trkpt lat="49.13533" lon="-0.48501">
        <ele>51</ele>
        <time>2021-02-17T05:56:35Z</time>
      </trkpt>
      <trkpt lat="49.13519" lon="-0.48507">
        <ele>53</ele>
        <time>2021-02-17T05:56:32Z</time>
      </trkpt>
      <trkpt lat="49.13502" lon="-0.48518">
        <ele>53</ele>
        <time>2021-02-17T05:56:28Z</time>
      </trkpt>
      <trkpt lat="49.13488" lon="-0.48535">
        <ele>52</ele>
        <time>2021-02-17T05:56:23Z</time>
      </trkpt>
      <trkpt lat="49.13478" lon="-0.48551">
        <ele>50</ele>
        <time>2021-02-17T05:56:20Z</time>
      </trkpt>
      <trkpt lat="49.13471" lon="-0.48561">
        <ele>49</ele>
        <time>2021-02-17T05:56:18Z</time>
      </trkpt>
      <trkpt lat="49.13465" lon="-0.48562">
        <ele>49</ele>
        <time>2021-02-17T05:56:16Z</time>
      </trkpt>
      <trkpt lat="49.13462" lon="-0.48554">
        <ele>50</ele>
        <time>2021-02-17T05:56:15Z</time>
      </trkpt>
      <trkpt lat="49.13457" lon="-0.48539">
        <ele>52</ele>
        <time>2021-02-17T05:56:12Z</time>
      </trkpt>
      <trkpt lat="49.1346" lon="-0.48525">
        <ele>54</ele>
        <time>2021-02-17T05:56:10Z</time>
      </trkpt>
      <trkpt lat="49.13462" lon="-0.48506">
        <ele>56</ele>
        <time>2021-02-17T05:56:07Z</time>
      </trkpt>
      <trkpt lat="49.13456" lon="-0.48485">
        <ele>59</ele>
        <time>2021-02-17T05:56:04Z</time>
      </trkpt>
      <trkpt lat="49.13465" lon="-0.48471">
        <ele>62</ele>
        <time>2021-02-17T05:56:01Z</time>
      </trkpt>
      <trkpt lat="49.13476" lon="-0.48463">
        <ele>63</ele>
        <time>2021-02-17T05:55:58Z</time>
      </trkpt>
      <trkpt lat="49.13489" lon="-0.4846">
        <ele>64</ele>
        <time>2021-02-17T05:55:55Z</time>
      </trkpt>
      <trkpt lat="49.135" lon="-0.48454">
        <ele>65</ele>
        <time>2021-02-17T05:55:52Z</time>
      </trkpt>
      <trkpt lat="49.1351" lon="-0.48446">
        <ele>65</ele>
        <time>2021-02-17T05:55:49Z</time>
      </trkpt>
      <trkpt lat="49.13519" lon="-0.48434">
        <ele>65</ele>
        <time>2021-02-17T05:55:47Z</time>
      </trkpt>
      <trkpt lat="49.13528" lon="-0.48426">
        <ele>64</ele>
        <time>2021-02-17T05:55:44Z</time>
      </trkpt>
      <trkpt lat="49.13534" lon="-0.48414">
        <ele>65</ele>
        <time>2021-02-17T05:55:42Z</time>
      </trkpt>
      <trkpt lat="49.13529" lon="-0.48407">
        <ele>66</ele>
        <time>2021-02-17T05:55:40Z</time>
      </trkpt>
      <trkpt lat="49.13516" lon="-0.48402">
        <ele>70</ele>
        <time>2021-02-17T05:55:37Z</time>
      </trkpt>
      <trkpt lat="49.13498" lon="-0.48408">
        <ele>73</ele>
        <time>2021-02-17T05:55:33Z</time>
      </trkpt>
      <trkpt lat="49.13493" lon="-0.48426">
        <ele>71</ele>
        <time>2021-02-17T05:55:30Z</time>
      </trkpt>
      <trkpt lat="49.13484" lon="-0.48437">
        <ele>68</ele>
        <time>2021-02-17T05:55:27Z</time>
      </trkpt>
      <trkpt lat="49.13471" lon="-0.48448">
        <ele>66</ele>
        <time>2021-02-17T05:55:24Z</time>
      </trkpt>
      <trkpt lat="49.13456" lon="-0.48457">
        <ele>64</ele>
        <time>2021-02-17T05:55:20Z</time>
      </trkpt>
      <trkpt lat="49.13444" lon="-0.48462">
        <ele>63</ele>
        <time>2021-02-17T05:55:17Z</time>
      </trkpt>
      <trkpt lat="49.13431" lon="-0.48456">
        <ele>63</ele>
        <time>2021-02-17T05:55:14Z</time>
      </trkpt>
      <trkpt lat="49.13419" lon="-0.48446">
        <ele>64</ele>
        <time>2021-02-17T05:55:11Z</time>
      </trkpt>
      <trkpt lat="49.13406" lon="-0.48441">
        <ele>63</ele>
        <time>2021-02-17T05:55:08Z</time>
      </trkpt>
      <trkpt lat="49.13393" lon="-0.48436">
        <ele>63</ele>
        <time>2021-02-17T05:55:04Z</time>
      </trkpt>
      <trkpt lat="49.13381" lon="-0.48433">
        <ele>62</ele>
        <time>2021-02-17T05:55:02Z</time>
      </trkpt>
      <trkpt lat="49.13369" lon="-0.48432">
        <ele>61</ele>
        <time>2021-02-17T05:54:59Z</time>
      </trkpt>
      <trkpt lat="49.13365" lon="-0.4843">
        <ele>61</ele>
        <time>2021-02-17T05:55:18Z</time>
      </trkpt>
      <trkpt lat="49.13365" lon="-0.4843">
        <ele>61</ele>
        <time>2021-02-17T05:55:18Z</time>
      </trkpt>
      <trkpt lat="49.13361" lon="-0.48448">
        <ele>59</ele>
        <time>2021-02-17T05:55:21Z</time>
      </trkpt>
      <trkpt lat="49.13354" lon="-0.48465">
        <ele>58</ele>
        <time>2021-02-17T05:55:24Z</time>
      </trkpt>
      <trkpt lat="49.13331" lon="-0.48502">
        <ele>55</ele>
        <time>2021-02-17T05:55:32Z</time>
      </trkpt>
      <trkpt lat="49.13327" lon="-0.48516">
        <ele>55</ele>
        <time>2021-02-17T05:55:34Z</time>
      </trkpt>
      <trkpt lat="49.13344" lon="-0.48578">
        <ele>54</ele>
        <time>2021-02-17T05:55:45Z</time>
      </trkpt>
      <trkpt lat="49.13347" lon="-0.48609">
        <ele>54</ele>
        <time>2021-02-17T05:55:49Z</time>
      </trkpt>
      <trkpt lat="49.13345" lon="-0.48627">
        <ele>54</ele>
        <time>2021-02-17T05:55:52Z</time>
      </trkpt>
      <trkpt lat="49.13311" lon="-0.48805">
        <ele>59</ele>
        <time>2021-02-17T05:56:21Z</time>
      </trkpt>
      <trkpt lat="49.13286" lon="-0.48868">
        <ele>60</ele>
        <time>2021-02-17T05:56:32Z</time>
      </trkpt>
      <trkpt lat="49.13283" lon="-0.48882">
        <ele>60</ele>
        <time>2021-02-17T05:56:34Z</time>
      </trkpt>
      <trkpt lat="49.13308" lon="-0.48922">
        <ele>57</ele>
        <time>2021-02-17T05:56:43Z</time>
      </trkpt>
      <trkpt lat="49.13353" lon="-0.49004">
        <ele>52</ele>
        <time>2021-02-17T05:56:59Z</time>
      </trkpt>
      <trkpt lat="49.13385" lon="-0.49164">
        <ele>44</ele>
        <time>2021-02-17T05:57:24Z</time>
      </trkpt>
      <trkpt lat="49.13387" lon="-0.49186">
        <ele>43</ele>
        <time>2021-02-17T05:57:28Z</time>
      </trkpt>
      <trkpt lat="49.13386" lon="-0.49258">
        <ele>41</ele>
        <time>2021-02-17T05:57:39Z</time>
      </trkpt>
      <trkpt lat="49.13388" lon="-0.49276">
        <ele>41</ele>
        <time>2021-02-17T05:57:42Z</time>
      </trkpt>
      <trkpt lat="49.13393" lon="-0.49287">
        <ele>41</ele>
        <time>2021-02-17T05:57:44Z</time>
      </trkpt>
      <trkpt lat="49.13392" lon="-0.49302">
        <ele>41</ele>
        <time>2021-02-17T05:57:46Z</time>
      </trkpt>
      <trkpt lat="49.1337" lon="-0.49365">
        <ele>43</ele>
        <time>2021-02-17T05:57:57Z</time>
      </trkpt>
      <trkpt lat="49.13357" lon="-0.4942">
        <ele>43</ele>
        <time>2021-02-17T05:58:06Z</time>
      </trkpt>
      <trkpt lat="49.13362" lon="-0.49434">
        <ele>43</ele>
        <time>2021-02-17T05:58:08Z</time>
      </trkpt>
      <trkpt lat="49.13401" lon="-0.49461">
        <ele>46</ele>
        <time>2021-02-17T05:58:18Z</time>
      </trkpt>
      <trkpt lat="49.13402" lon="-0.49493">
        <ele>48</ele>
        <time>2021-02-17T05:58:23Z</time>
      </trkpt>
      <trkpt lat="49.13412" lon="-0.49558">
        <ele>54</ele>
        <time>2021-02-17T05:58:33Z</time>
      </trkpt>
      <trkpt lat="49.13417" lon="-0.49577">
        <ele>56</ele>
        <time>2021-02-17T05:58:37Z</time>
      </trkpt>
      <trkpt lat="49.13425" lon="-0.49657">
        <ele>60</ele>
        <time>2021-02-17T05:58:49Z</time>
      </trkpt>
      <trkpt lat="49.13423" lon="-0.49711">
        <ele>62</ele>
        <time>2021-02-17T05:58:57Z</time>
      </trkpt>
      <trkpt lat="49.13425" lon="-0.49745">
        <ele>63</ele>
        <time>2021-02-17T05:59:02Z</time>
      </trkpt>
      <trkpt lat="49.13448" lon="-0.49867">
        <ele>66</ele>
        <time>2021-02-17T05:59:22Z</time>
      </trkpt>
      <trkpt lat="49.13454" lon="-0.49874">
        <ele>66</ele>
        <time>2021-02-17T05:59:24Z</time>
      </trkpt>
      <trkpt lat="49.13462" lon="-0.49862">
        <ele>66</ele>
        <time>2021-02-17T05:59:26Z</time>
      </trkpt>
      <trkpt lat="49.13467" lon="-0.49849">
        <ele>66</ele>
        <time>2021-02-17T05:59:28Z</time>
      </trkpt>
      <trkpt lat="49.13497" lon="-0.49815">
        <ele>66</ele>
        <time>2021-02-17T05:59:37Z</time>
      </trkpt>
      <trkpt lat="49.13515" lon="-0.49781">
        <ele>66</ele>
        <time>2021-02-17T05:59:44Z</time>
      </trkpt>
      <trkpt lat="49.13561" lon="-0.49673">
        <ele>69</ele>
        <time>2021-02-17T06:00:04Z</time>
      </trkpt>
      <trkpt lat="49.13619" lon="-0.49551">
        <ele>66</ele>
        <time>2021-02-17T06:00:27Z</time>
      </trkpt>
      <trkpt lat="49.13636" lon="-0.49524">
        <ele>65</ele>
        <time>2021-02-17T06:00:32Z</time>
      </trkpt>
      <trkpt lat="49.13671" lon="-0.49477">
        <ele>64</ele>
        <time>2021-02-17T06:00:43Z</time>
      </trkpt>
      <trkpt lat="49.13724" lon="-0.4939">
        <ele>62</ele>
        <time>2021-02-17T06:01:01Z</time>
      </trkpt>
      <trkpt lat="49.13733" lon="-0.49395">
        <ele>62</ele>
        <time>2021-02-17T06:01:04Z</time>
      </trkpt>
      <trkpt lat="49.13745" lon="-0.4942">
        <ele>64</ele>
        <time>2021-02-17T06:01:08Z</time>
      </trkpt>
      <trkpt lat="49.13771" lon="-0.49456">
        <ele>65</ele>
        <time>2021-02-17T06:01:17Z</time>
      </trkpt>
      <trkpt lat="49.13794" lon="-0.4947">
        <ele>64</ele>
        <time>2021-02-17T06:01:22Z</time>
      </trkpt>
      <trkpt lat="49.13829" lon="-0.49472">
        <ele>63</ele>
        <time>2021-02-17T06:01:30Z</time>
      </trkpt>
      <trkpt lat="49.13876" lon="-0.49556">
        <ele>66</ele>
        <time>2021-02-17T06:01:47Z</time>
      </trkpt>
      <trkpt lat="49.13922" lon="-0.49626">
        <ele>68</ele>
        <time>2021-02-17T06:02:03Z</time>
      </trkpt>
      <trkpt lat="49.13983" lon="-0.49736">
        <ele>73</ele>
        <time>2021-02-17T06:02:25Z</time>
      </trkpt>
      <trkpt lat="49.14051" lon="-0.49896">
        <ele>77</ele>
        <time>2021-02-17T06:02:54Z</time>
      </trkpt>
      <trkpt lat="49.14055" lon="-0.49911">
        <ele>77</ele>
        <time>2021-02-17T06:02:56Z</time>
      </trkpt>
      <trkpt lat="49.14052" lon="-0.49926">
        <ele>77</ele>
        <time>2021-02-17T06:02:59Z</time>
      </trkpt>
      <trkpt lat="49.14018" lon="-0.49977">
        <ele>78</ele>
        <time>2021-02-17T06:03:10Z</time>
      </trkpt>
      <trkpt lat="49.13968" lon="-0.50063">
        <ele>79</ele>
        <time>2021-02-17T06:03:27Z</time>
      </trkpt>
      <trkpt lat="49.13936" lon="-0.50096">
        <ele>79</ele>
        <time>2021-02-17T06:03:36Z</time>
      </trkpt>
      <trkpt lat="49.13895" lon="-0.50122">
        <ele>80</ele>
        <time>2021-02-17T06:03:47Z</time>
      </trkpt>
      <trkpt lat="49.13877" lon="-0.50137">
        <ele>80</ele>
        <time>2021-02-17T06:03:51Z</time>
      </trkpt>
      <trkpt lat="49.13801" lon="-0.5026">
        <ele>79</ele>
        <time>2021-02-17T06:04:17Z</time>
      </trkpt>
      <trkpt lat="49.13794" lon="-0.50267">
        <ele>79</ele>
        <time>2021-02-17T06:04:19Z</time>
      </trkpt>
      <trkpt lat="49.13785" lon="-0.50268">
        <ele>79</ele>
        <time>2021-02-17T06:04:21Z</time>
      </trkpt>
      <trkpt lat="49.13692" lon="-0.5022">
        <ele>76</ele>
        <time>2021-02-17T06:04:44Z</time>
      </trkpt>
      <trkpt lat="49.13638" lon="-0.50191">
        <ele>74</ele>
        <time>2021-02-17T06:04:58Z</time>
      </trkpt>
      <trkpt lat="49.13585" lon="-0.50158">
        <ele>71</ele>
        <time>2021-02-17T06:05:11Z</time>
      </trkpt>
      <trkpt lat="49.13566" lon="-0.50137">
        <ele>70</ele>
        <time>2021-02-17T06:05:16Z</time>
      </trkpt>
      <trkpt lat="49.13555" lon="-0.50132">
        <ele>70</ele>
        <time>2021-02-17T06:05:19Z</time>
      </trkpt>
      <trkpt lat="49.13545" lon="-0.50124">
        <ele>69</ele>
        <time>2021-02-17T06:05:22Z</time>
      </trkpt>
      <trkpt lat="49.13449" lon="-0.5003">
        <ele>66</ele>
        <time>2021-02-17T06:05:48Z</time>
      </trkpt>
      <trkpt lat="49.1342" lon="-0.50011">
        <ele>65</ele>
        <time>2021-02-17T06:05:56Z</time>
      </trkpt>
      <trkpt lat="49.13398" lon="-0.50005">
        <ele>65</ele>
        <time>2021-02-17T06:06:01Z</time>
      </trkpt>
      <trkpt lat="49.13378" lon="-0.50026">
        <ele>64</ele>
        <time>2021-02-17T06:06:07Z</time>
      </trkpt>
      <trkpt lat="49.13315" lon="-0.50149">
        <ele>65</ele>
        <time>2021-02-17T06:06:31Z</time>
      </trkpt>
      <trkpt lat="49.13302" lon="-0.5017">
        <ele>65</ele>
        <time>2021-02-17T06:06:35Z</time>
      </trkpt>
      <trkpt lat="49.13284" lon="-0.50207">
        <ele>64</ele>
        <time>2021-02-17T06:06:42Z</time>
      </trkpt>
      <trkpt lat="49.13276" lon="-0.50235">
        <ele>64</ele>
        <time>2021-02-17T06:06:47Z</time>
      </trkpt>
      <trkpt lat="49.13249" lon="-0.50287">
        <ele>64</ele>
        <time>2021-02-17T06:06:57Z</time>
      </trkpt>
      <trkpt lat="49.13238" lon="-0.50316">
        <ele>65</ele>
        <time>2021-02-17T06:07:02Z</time>
      </trkpt>
      <trkpt lat="49.13169" lon="-0.50437">
        <ele>65</ele>
        <time>2021-02-17T06:07:26Z</time>
      </trkpt>
      <trkpt lat="49.13154" lon="-0.5046">
        <ele>65</ele>
        <time>2021-02-17T06:07:31Z</time>
      </trkpt>
      <trkpt lat="49.13143" lon="-0.50466">
        <ele>64</ele>
        <time>2021-02-17T06:07:34Z</time>
      </trkpt>
      <trkpt lat="49.13132" lon="-0.50459">
        <ele>65</ele>
        <time>2021-02-17T06:07:37Z</time>
      </trkpt>
      <trkpt lat="49.13109" lon="-0.50432">
        <ele>66</ele>
        <time>2021-02-17T06:07:44Z</time>
      </trkpt>
      <trkpt lat="49.13087" lon="-0.50399">
        <ele>66</ele>
        <time>2021-02-17T06:07:51Z</time>
      </trkpt>
      <trkpt lat="49.13083" lon="-0.50387">
        <ele>66</ele>
        <time>2021-02-17T06:07:53Z</time>
      </trkpt>
      <trkpt lat="49.13075" lon="-0.50381">
        <ele>66</ele>
        <time>2021-02-17T06:07:55Z</time>
      </trkpt>
      <trkpt lat="49.13066" lon="-0.50381">
        <ele>65</ele>
        <time>2021-02-17T06:07:57Z</time>
      </trkpt>
      <trkpt lat="49.13048" lon="-0.50362">
        <ele>65</ele>
        <time>2021-02-17T06:08:02Z</time>
      </trkpt>
      <trkpt lat="49.13043" lon="-0.50349">
        <ele>65</ele>
        <time>2021-02-17T06:08:05Z</time>
      </trkpt>
      <trkpt lat="49.13034" lon="-0.50338">
        <ele>64</ele>
        <time>2021-02-17T06:08:07Z</time>
      </trkpt>
      <trkpt lat="49.13028" lon="-0.50326">
        <ele>64</ele>
        <time>2021-02-17T06:08:10Z</time>
      </trkpt>
      <trkpt lat="49.13008" lon="-0.50306">
        <ele>63</ele>
        <time>2021-02-17T06:08:15Z</time>
      </trkpt>
      <trkpt lat="49.13002" lon="-0.50295">
        <ele>63</ele>
        <time>2021-02-17T06:08:17Z</time>
      </trkpt>
      <trkpt lat="49.12992" lon="-0.5029">
        <ele>62</ele>
        <time>2021-02-17T06:08:20Z</time>
      </trkpt>
      <trkpt lat="49.12961" lon="-0.50266">
        <ele>61</ele>
        <time>2021-02-17T06:08:28Z</time>
      </trkpt>
      <trkpt lat="49.12942" lon="-0.50221">
        <ele>58</ele>
        <time>2021-02-17T06:08:36Z</time>
      </trkpt>
      <trkpt lat="49.1293" lon="-0.50217">
        <ele>58</ele>
        <time>2021-02-17T06:08:39Z</time>
      </trkpt>
      <trkpt lat="49.12919" lon="-0.50219">
        <ele>58</ele>
        <time>2021-02-17T06:08:42Z</time>
      </trkpt>
      <trkpt lat="49.12901" lon="-0.5023">
        <ele>56</ele>
        <time>2021-02-17T06:08:46Z</time>
      </trkpt>
      <trkpt lat="49.12886" lon="-0.50271">
        <ele>56</ele>
        <time>2021-02-17T06:08:53Z</time>
      </trkpt>
      <trkpt lat="49.1288" lon="-0.50308">
        <ele>57</ele>
        <time>2021-02-17T06:08:59Z</time>
      </trkpt>
      <trkpt lat="49.12868" lon="-0.50357">
        <ele>57</ele>
        <time>2021-02-17T06:09:07Z</time>
      </trkpt>
      <trkpt lat="49.12861" lon="-0.50368">
        <ele>56</ele>
        <time>2021-02-17T06:09:09Z</time>
      </trkpt>
      <trkpt lat="49.12852" lon="-0.50376">
        <ele>55</ele>
        <time>2021-02-17T06:09:12Z</time>
      </trkpt>
      <trkpt lat="49.1284" lon="-0.50409">
        <ele>54</ele>
        <time>2021-02-17T06:09:18Z</time>
      </trkpt>
      <trkpt lat="49.12844" lon="-0.50427">
        <ele>55</ele>
        <time>2021-02-17T06:09:21Z</time>
      </trkpt>
      <trkpt lat="49.12844" lon="-0.50444">
        <ele>55</ele>
        <time>2021-02-17T06:09:23Z</time>
      </trkpt>
      <trkpt lat="49.12841" lon="-0.5046">
        <ele>55</ele>
        <time>2021-02-17T06:09:26Z</time>
      </trkpt>
      <trkpt lat="49.12829" lon="-0.50488">
        <ele>55</ele>
        <time>2021-02-17T06:09:31Z</time>
      </trkpt>
      <trkpt lat="49.12825" lon="-0.50507">
        <ele>55</ele>
        <time>2021-02-17T06:09:34Z</time>
      </trkpt>
      <trkpt lat="49.12826" lon="-0.50528">
        <ele>56</ele>
        <time>2021-02-17T06:09:37Z</time>
      </trkpt>
      <trkpt lat="49.12828" lon="-0.50543">
        <ele>56</ele>
        <time>2021-02-17T06:09:39Z</time>
      </trkpt>
      <trkpt lat="49.12843" lon="-0.50574">
        <ele>59</ele>
        <time>2021-02-17T06:09:45Z</time>
      </trkpt>
      <trkpt lat="49.1286" lon="-0.506">
        <ele>60</ele>
        <time>2021-02-17T06:09:51Z</time>
      </trkpt>
      <trkpt lat="49.12869" lon="-0.50607">
        <ele>61</ele>
        <time>2021-02-17T06:09:53Z</time>
      </trkpt>
      <trkpt lat="49.12892" lon="-0.50616">
        <ele>62</ele>
        <time>2021-02-17T06:09:59Z</time>
      </trkpt>
      <trkpt lat="49.12918" lon="-0.5062">
        <ele>63</ele>
        <time>2021-02-17T06:10:05Z</time>
      </trkpt>
      <trkpt lat="49.12924" lon="-0.50623">
        <ele>63</ele>
        <time>2021-02-17T06:10:06Z</time>
      </trkpt>
      <trkpt lat="49.12894" lon="-0.50632">
        <ele>62</ele>
        <time>2021-02-17T06:10:14Z</time>
      </trkpt>
      <trkpt lat="49.12883" lon="-0.50643">
        <ele>61</ele>
        <time>2021-02-17T06:10:17Z</time>
      </trkpt>
      <trkpt lat="49.12862" lon="-0.50643">
        <ele>61</ele>
        <time>2021-02-17T06:10:21Z</time>
      </trkpt>
      <trkpt lat="49.12849" lon="-0.50639">
        <ele>60</ele>
        <time>2021-02-17T06:10:25Z</time>
      </trkpt>
      <trkpt lat="49.12841" lon="-0.50649">
        <ele>60</ele>
        <time>2021-02-17T06:10:27Z</time>
      </trkpt>
      <trkpt lat="49.12837" lon="-0.50665">
        <ele>61</ele>
        <time>2021-02-17T06:10:30Z</time>
      </trkpt>
      <trkpt lat="49.12842" lon="-0.50688">
        <ele>62</ele>
        <time>2021-02-17T06:10:33Z</time>
      </trkpt>
      <trkpt lat="49.12832" lon="-0.50684">
        <ele>62</ele>
        <time>2021-02-17T06:10:36Z</time>
      </trkpt>
      <trkpt lat="49.12804" lon="-0.50663">
        <ele>60</ele>
        <time>2021-02-17T06:10:43Z</time>
      </trkpt>
      <trkpt lat="49.12782" lon="-0.50637">
        <ele>57</ele>
        <time>2021-02-17T06:10:50Z</time>
      </trkpt>
      <trkpt lat="49.12772" lon="-0.50658">
        <ele>59</ele>
        <time>2021-02-17T06:10:53Z</time>
      </trkpt>
      <trkpt lat="49.12762" lon="-0.50667">
        <ele>59</ele>
        <time>2021-02-17T06:10:56Z</time>
      </trkpt>
      <trkpt lat="49.1275" lon="-0.50671">
        <ele>59</ele>
        <time>2021-02-17T06:10:59Z</time>
      </trkpt>
      <trkpt lat="49.12692" lon="-0.50725">
        <ele>57</ele>
        <time>2021-02-17T06:11:15Z</time>
      </trkpt>
      <trkpt lat="49.12636" lon="-0.50796">
        <ele>60</ele>
        <time>2021-02-17T06:11:32Z</time>
      </trkpt>
      <trkpt lat="49.1261" lon="-0.50836">
        <ele>62</ele>
        <time>2021-02-17T06:11:41Z</time>
      </trkpt>
      <trkpt lat="49.12573" lon="-0.5088">
        <ele>62</ele>
        <time>2021-02-17T06:11:51Z</time>
      </trkpt>
      <trkpt lat="49.12554" lon="-0.50899">
        <ele>62</ele>
        <time>2021-02-17T06:11:57Z</time>
      </trkpt>
      <trkpt lat="49.12539" lon="-0.50919">
        <ele>61</ele>
        <time>2021-02-17T06:12:01Z</time>
      </trkpt>
      <trkpt lat="49.1251" lon="-0.50949">
        <ele>60</ele>
        <time>2021-02-17T06:12:10Z</time>
      </trkpt>
      <trkpt lat="49.12479" lon="-0.50991">
        <ele>58</ele>
        <time>2021-02-17T06:12:19Z</time>
      </trkpt>
      <trkpt lat="49.12466" lon="-0.50999">
        <ele>57</ele>
        <time>2021-02-17T06:12:23Z</time>
      </trkpt>
      <trkpt lat="49.12451" lon="-0.50996">
        <ele>54</ele>
        <time>2021-02-17T06:12:26Z</time>
      </trkpt>
      <trkpt lat="49.1244" lon="-0.50997">
        <ele>53</ele>
        <time>2021-02-17T06:12:29Z</time>
      </trkpt>
      <trkpt lat="49.12426" lon="-0.51002">
        <ele>51</ele>
        <time>2021-02-17T06:12:32Z</time>
      </trkpt>
      <trkpt lat="49.12411" lon="-0.51024">
        <ele>50</ele>
        <time>2021-02-17T06:12:37Z</time>
      </trkpt>
      <trkpt lat="49.12406" lon="-0.51044">
        <ele>51</ele>
        <time>2021-02-17T06:12:40Z</time>
      </trkpt>
      <trkpt lat="49.12394" lon="-0.51064">
        <ele>52</ele>
        <time>2021-02-17T06:12:44Z</time>
      </trkpt>
      <trkpt lat="49.12381" lon="-0.51076">
        <ele>53</ele>
        <time>2021-02-17T06:12:48Z</time>
      </trkpt>
      <trkpt lat="49.12387" lon="-0.51092">
        <ele>53</ele>
        <time>2021-02-17T06:12:51Z</time>
      </trkpt>
      <trkpt lat="49.12397" lon="-0.51093">
        <ele>53</ele>
        <time>2021-02-17T06:12:53Z</time>
      </trkpt>
      <trkpt lat="49.12405" lon="-0.51098">
        <ele>53</ele>
        <time>2021-02-17T06:12:55Z</time>
      </trkpt>
      <trkpt lat="49.12409" lon="-0.5111">
        <ele>53</ele>
        <time>2021-02-17T06:12:57Z</time>
      </trkpt>
      <trkpt lat="49.12435" lon="-0.51132">
        <ele>55</ele>
        <time>2021-02-17T06:13:04Z</time>
      </trkpt>
      <trkpt lat="49.12454" lon="-0.51154">
        <ele>56</ele>
        <time>2021-02-17T06:13:10Z</time>
      </trkpt>
      <trkpt lat="49.12473" lon="-0.51165">
        <ele>57</ele>
        <time>2021-02-17T06:13:14Z</time>
      </trkpt>
      <trkpt lat="49.12484" lon="-0.51157">
        <ele>58</ele>
        <time>2021-02-17T06:13:17Z</time>
      </trkpt>
      <trkpt lat="49.12497" lon="-0.51152">
        <ele>59</ele>
        <time>2021-02-17T06:13:20Z</time>
      </trkpt>
      <trkpt lat="49.12526" lon="-0.51155">
        <ele>61</ele>
        <time>2021-02-17T06:13:27Z</time>
      </trkpt>
      <trkpt lat="49.12551" lon="-0.5118">
        <ele>62</ele>
        <time>2021-02-17T06:13:34Z</time>
      </trkpt>
      <trkpt lat="49.1257" lon="-0.5121">
        <ele>63</ele>
        <time>2021-02-17T06:13:40Z</time>
      </trkpt>
      <trkpt lat="49.12579" lon="-0.51222">
        <ele>63</ele>
        <time>2021-02-17T06:13:43Z</time>
      </trkpt>
      <trkpt lat="49.12591" lon="-0.51231">
        <ele>64</ele>
        <time>2021-02-17T06:13:46Z</time>
      </trkpt>
      <trkpt lat="49.12609" lon="-0.51258">
        <ele>65</ele>
        <time>2021-02-17T06:13:52Z</time>
      </trkpt>
      <trkpt lat="49.12622" lon="-0.51283">
        <ele>66</ele>
        <time>2021-02-17T06:13:57Z</time>
      </trkpt>
      <trkpt lat="49.12629" lon="-0.51311">
        <ele>67</ele>
        <time>2021-02-17T06:14:02Z</time>
      </trkpt>
      <trkpt lat="49.1266" lon="-0.51345">
        <ele>69</ele>
        <time>2021-02-17T06:14:11Z</time>
      </trkpt>
      <trkpt lat="49.12686" lon="-0.5138">
        <ele>71</ele>
        <time>2021-02-17T06:14:19Z</time>
      </trkpt>
      <trkpt lat="49.12691" lon="-0.51394">
        <ele>71</ele>
        <time>2021-02-17T06:14:21Z</time>
      </trkpt>
      <trkpt lat="49.12701" lon="-0.51408">
        <ele>72</ele>
        <time>2021-02-17T06:14:24Z</time>
      </trkpt>
      <trkpt lat="49.12715" lon="-0.51443">
        <ele>72</ele>
        <time>2021-02-17T06:14:31Z</time>
      </trkpt>
      <trkpt lat="49.12747" lon="-0.51508">
        <ele>73</ele>
        <time>2021-02-17T06:14:43Z</time>
      </trkpt>
      <trkpt lat="49.1276" lon="-0.51516">
        <ele>73</ele>
        <time>2021-02-17T06:14:46Z</time>
      </trkpt>
      <trkpt lat="49.12773" lon="-0.51511">
        <ele>73</ele>
        <time>2021-02-17T06:14:49Z</time>
      </trkpt>
      <trkpt lat="49.1279" lon="-0.51487">
        <ele>74</ele>
        <time>2021-02-17T06:14:55Z</time>
      </trkpt>
      <trkpt lat="49.12882" lon="-0.51384">
        <ele>76</ele>
        <time>2021-02-17T06:15:21Z</time>
      </trkpt>
      <trkpt lat="49.12935" lon="-0.51309">
        <ele>76</ele>
        <time>2021-02-17T06:15:38Z</time>
      </trkpt>
      <trkpt lat="49.12984" lon="-0.51247">
        <ele>74</ele>
        <time>2021-02-17T06:15:53Z</time>
      </trkpt>
      <trkpt lat="49.13003" lon="-0.51219">
        <ele>73</ele>
        <time>2021-02-17T06:15:59Z</time>
      </trkpt>
      <trkpt lat="49.13014" lon="-0.5121">
        <ele>73</ele>
        <time>2021-02-17T06:16:02Z</time>
      </trkpt>
      <trkpt lat="49.13028" lon="-0.51211">
        <ele>73</ele>
        <time>2021-02-17T06:16:06Z</time>
      </trkpt>
      <trkpt lat="49.13322" lon="-0.51271">
        <ele>76</ele>
        <time>2021-02-17T06:17:15Z</time>
      </trkpt>
      <trkpt lat="49.13334" lon="-0.51279">
        <ele>76</ele>
        <time>2021-02-17T06:17:18Z</time>
      </trkpt>
      <trkpt lat="49.13336" lon="-0.51298">
        <ele>75</ele>
        <time>2021-02-17T06:17:21Z</time>
      </trkpt>
      <trkpt lat="49.13334" lon="-0.51317">
        <ele>75</ele>
        <time>2021-02-17T06:17:24Z</time>
      </trkpt>
      <trkpt lat="49.13298" lon="-0.51455">
        <ele>75</ele>
        <time>2021-02-17T06:17:46Z</time>
      </trkpt>
      <trkpt lat="49.13283" lon="-0.51504">
        <ele>76</ele>
        <time>2021-02-17T06:17:55Z</time>
      </trkpt>
      <trkpt lat="49.13277" lon="-0.51538">
        <ele>76</ele>
        <time>2021-02-17T06:18:00Z</time>
      </trkpt>
      <trkpt lat="49.13269" lon="-0.51552">
        <ele>76</ele>
        <time>2021-02-17T06:18:03Z</time>
      </trkpt>
      <trkpt lat="49.13264" lon="-0.51568">
        <ele>77</ele>
        <time>2021-02-17T06:18:06Z</time>
      </trkpt>
      <trkpt lat="49.13225" lon="-0.51736">
        <ele>79</ele>
        <time>2021-02-17T06:18:33Z</time>
      </trkpt>
      <trkpt lat="49.13215" lon="-0.5177">
        <ele>79</ele>
        <time>2021-02-17T06:18:39Z</time>
      </trkpt>
      <trkpt lat="49.13207" lon="-0.51787">
        <ele>79</ele>
        <time>2021-02-17T06:18:42Z</time>
      </trkpt>
      <trkpt lat="49.13204" lon="-0.51819">
        <ele>78</ele>
        <time>2021-02-17T06:18:47Z</time>
      </trkpt>
      <trkpt lat="49.13195" lon="-0.51812">
        <ele>78</ele>
        <time>2021-02-17T06:18:49Z</time>
      </trkpt>
      <trkpt lat="49.13025" lon="-0.51729">
        <ele>76</ele>
        <time>2021-02-17T06:19:31Z</time>
      </trkpt>
      <trkpt lat="49.12966" lon="-0.51697">
        <ele>75</ele>
        <time>2021-02-17T06:19:45Z</time>
      </trkpt>
      <trkpt lat="49.12894" lon="-0.51648">
        <ele>74</ele>
        <time>2021-02-17T06:20:04Z</time>
      </trkpt>
      <trkpt lat="49.12883" lon="-0.51646">
        <ele>73</ele>
        <time>2021-02-17T06:20:06Z</time>
      </trkpt>
      <trkpt lat="49.12871" lon="-0.51647">
        <ele>72</ele>
        <time>2021-02-17T06:20:09Z</time>
      </trkpt>
      <trkpt lat="49.12832" lon="-0.51637">
        <ele>70</ele>
        <time>2021-02-17T06:20:18Z</time>
      </trkpt>
      <trkpt lat="49.12804" lon="-0.51642">
        <ele>70</ele>
        <time>2021-02-17T06:20:25Z</time>
      </trkpt>
      <trkpt lat="49.1278" lon="-0.51641">
        <ele>70</ele>
        <time>2021-02-17T06:20:31Z</time>
      </trkpt>
      <trkpt lat="49.12756" lon="-0.51629">
        <ele>70</ele>
        <time>2021-02-17T06:20:36Z</time>
      </trkpt>
      <trkpt lat="49.12749" lon="-0.51619">
        <ele>70</ele>
        <time>2021-02-17T06:20:39Z</time>
      </trkpt>
      <trkpt lat="49.12742" lon="-0.51593">
        <ele>70</ele>
        <time>2021-02-17T06:20:43Z</time>
      </trkpt>
      <trkpt lat="49.12733" lon="-0.51579">
        <ele>70</ele>
        <time>2021-02-17T06:20:46Z</time>
      </trkpt>
      <trkpt lat="49.12716" lon="-0.51527">
        <ele>71</ele>
        <time>2021-02-17T06:20:55Z</time>
      </trkpt>
      <trkpt lat="49.12712" lon="-0.51508">
        <ele>71</ele>
        <time>2021-02-17T06:20:58Z</time>
      </trkpt>
      <trkpt lat="49.12686" lon="-0.51451">
        <ele>71</ele>
        <time>2021-02-17T06:21:09Z</time>
      </trkpt>
      <trkpt lat="49.12582" lon="-0.51283">
        <ele>64</ele>
        <time>2021-02-17T06:21:44Z</time>
      </trkpt>
      <trkpt lat="49.12561" lon="-0.51248">
        <ele>62</ele>
        <time>2021-02-17T06:21:51Z</time>
      </trkpt>
      <trkpt lat="49.12554" lon="-0.51231">
        <ele>62</ele>
        <time>2021-02-17T06:21:54Z</time>
      </trkpt>
      <trkpt lat="49.1252" lon="-0.51227">
        <ele>60</ele>
        <time>2021-02-17T06:22:02Z</time>
      </trkpt>
      <trkpt lat="49.12496" lon="-0.51194">
        <ele>58</ele>
        <time>2021-02-17T06:22:10Z</time>
      </trkpt>
      <trkpt lat="49.12462" lon="-0.51172">
        <ele>56</ele>
        <time>2021-02-17T06:22:18Z</time>
      </trkpt>
      <trkpt lat="49.12449" lon="-0.51159">
        <ele>55</ele>
        <time>2021-02-17T06:22:22Z</time>
      </trkpt>
      <trkpt lat="49.12434" lon="-0.51138">
        <ele>54</ele>
        <time>2021-02-17T06:22:27Z</time>
      </trkpt>
      <trkpt lat="49.12425" lon="-0.51132">
        <ele>54</ele>
        <time>2021-02-17T06:22:29Z</time>
      </trkpt>
      <trkpt lat="49.12397" lon="-0.51141">
        <ele>53</ele>
        <time>2021-02-17T06:22:36Z</time>
      </trkpt>
      <trkpt lat="49.12386" lon="-0.51134">
        <ele>53</ele>
        <time>2021-02-17T06:22:39Z</time>
      </trkpt>
      <trkpt lat="49.12368" lon="-0.51117">
        <ele>53</ele>
        <time>2021-02-17T06:22:43Z</time>
      </trkpt>
      <trkpt lat="49.12359" lon="-0.51102">
        <ele>53</ele>
        <time>2021-02-17T06:22:47Z</time>
      </trkpt>
      <trkpt lat="49.12354" lon="-0.51087">
        <ele>53</ele>
        <time>2021-02-17T06:22:49Z</time>
      </trkpt>
      <trkpt lat="49.12344" lon="-0.51089">
        <ele>53</ele>
        <time>2021-02-17T06:22:51Z</time>
      </trkpt>
      <trkpt lat="49.12342" lon="-0.51106">
        <ele>53</ele>
        <time>2021-02-17T06:22:54Z</time>
      </trkpt>
      <trkpt lat="49.12364" lon="-0.51151">
        <ele>52</ele>
        <time>2021-02-17T06:23:03Z</time>
      </trkpt>
      <trkpt lat="49.1238" lon="-0.512">
        <ele>53</ele>
        <time>2021-02-17T06:23:11Z</time>
      </trkpt>
      <trkpt lat="49.1239" lon="-0.51245">
        <ele>52</ele>
        <time>2021-02-17T06:23:18Z</time>
      </trkpt>
      <trkpt lat="49.1239" lon="-0.51296">
        <ele>52</ele>
        <time>2021-02-17T06:23:26Z</time>
      </trkpt>
      <trkpt lat="49.12382" lon="-0.51356">
        <ele>53</ele>
        <time>2021-02-17T06:23:36Z</time>
      </trkpt>
      <trkpt lat="49.12382" lon="-0.51371">
        <ele>53</ele>
        <time>2021-02-17T06:23:38Z</time>
      </trkpt>
      <trkpt lat="49.12392" lon="-0.51367">
        <ele>53</ele>
        <time>2021-02-17T06:23:40Z</time>
      </trkpt>
      <trkpt lat="49.12385" lon="-0.51435">
        <ele>54</ele>
        <time>2021-02-17T06:23:51Z</time>
      </trkpt>
      <trkpt lat="49.12365" lon="-0.51488">
        <ele>58</ele>
        <time>2021-02-17T06:24:00Z</time>
      </trkpt>
      <trkpt lat="49.12356" lon="-0.51503">
        <ele>59</ele>
        <time>2021-02-17T06:24:03Z</time>
      </trkpt>
      <trkpt lat="49.12337" lon="-0.51548">
        <ele>58</ele>
        <time>2021-02-17T06:24:11Z</time>
      </trkpt>
      <trkpt lat="49.12333" lon="-0.51563">
        <ele>57</ele>
        <time>2021-02-17T06:24:14Z</time>
      </trkpt>
      <trkpt lat="49.12326" lon="-0.51576">
        <ele>56</ele>
        <time>2021-02-17T06:24:16Z</time>
      </trkpt>
      <trkpt lat="49.12312" lon="-0.51626">
        <ele>55</ele>
        <time>2021-02-17T06:24:25Z</time>
      </trkpt>
      <trkpt lat="49.12304" lon="-0.51642">
        <ele>55</ele>
        <time>2021-02-17T06:24:28Z</time>
      </trkpt>
      <trkpt lat="49.12292" lon="-0.51659">
        <ele>56</ele>
        <time>2021-02-17T06:24:32Z</time>
      </trkpt>
      <trkpt lat="49.12278" lon="-0.5167">
        <ele>57</ele>
        <time>2021-02-17T06:24:35Z</time>
      </trkpt>
      <trkpt lat="49.12255" lon="-0.51696">
        <ele>58</ele>
        <time>2021-02-17T06:24:42Z</time>
      </trkpt>
      <trkpt lat="49.12235" lon="-0.51723">
        <ele>59</ele>
        <time>2021-02-17T06:24:48Z</time>
      </trkpt>
      <trkpt lat="49.1222" lon="-0.5172">
        <ele>60</ele>
        <time>2021-02-17T06:24:52Z</time>
      </trkpt>
      <trkpt lat="49.12222" lon="-0.51701">
        <ele>61</ele>
        <time>2021-02-17T06:24:55Z</time>
      </trkpt>
      <trkpt lat="49.12232" lon="-0.51674">
        <ele>61</ele>
        <time>2021-02-17T06:24:59Z</time>
      </trkpt>
      <trkpt lat="49.12235" lon="-0.51659">
        <ele>61</ele>
        <time>2021-02-17T06:25:02Z</time>
      </trkpt>
      <trkpt lat="49.12206" lon="-0.5167">
        <ele>64</ele>
        <time>2021-02-17T06:25:09Z</time>
      </trkpt>
      <trkpt lat="49.12185" lon="-0.51675">
        <ele>65</ele>
        <time>2021-02-17T06:25:14Z</time>
      </trkpt>
      <trkpt lat="49.12165" lon="-0.51685">
        <ele>66</ele>
        <time>2021-02-17T06:25:19Z</time>
      </trkpt>
      <trkpt lat="49.12153" lon="-0.51684">
        <ele>67</ele>
        <time>2021-02-17T06:25:21Z</time>
      </trkpt>
      <trkpt lat="49.12145" lon="-0.51676">
        <ele>67</ele>
        <time>2021-02-17T06:25:24Z</time>
      </trkpt>
      <trkpt lat="49.12125" lon="-0.51667">
        <ele>68</ele>
        <time>2021-02-17T06:25:29Z</time>
      </trkpt>
      <trkpt lat="49.12067" lon="-0.51625">
        <ele>70</ele>
        <time>2021-02-17T06:25:44Z</time>
      </trkpt>
      <trkpt lat="49.12052" lon="-0.51604">
        <ele>70</ele>
        <time>2021-02-17T06:25:48Z</time>
      </trkpt>
      <trkpt lat="49.1206" lon="-0.51594">
        <ele>70</ele>
        <time>2021-02-17T06:25:51Z</time>
      </trkpt>
      <trkpt lat="49.12083" lon="-0.51586">
        <ele>69</ele>
        <time>2021-02-17T06:25:56Z</time>
      </trkpt>
      <trkpt lat="49.12118" lon="-0.51567">
        <ele>68</ele>
        <time>2021-02-17T06:26:05Z</time>
      </trkpt>
      <trkpt lat="49.12145" lon="-0.51542">
        <ele>67</ele>
        <time>2021-02-17T06:26:12Z</time>
      </trkpt>
      <trkpt lat="49.12162" lon="-0.5152">
        <ele>67</ele>
        <time>2021-02-17T06:26:18Z</time>
      </trkpt>
      <trkpt lat="49.1218" lon="-0.5148">
        <ele>66</ele>
        <time>2021-02-17T06:26:25Z</time>
      </trkpt>
      <trkpt lat="49.12202" lon="-0.51412">
        <ele>65</ele>
        <time>2021-02-17T06:26:37Z</time>
      </trkpt>
      <trkpt lat="49.12252" lon="-0.5124">
        <ele>61</ele>
        <time>2021-02-17T06:27:05Z</time>
      </trkpt>
      <trkpt lat="49.12253" lon="-0.51224">
        <ele>61</ele>
        <time>2021-02-17T06:27:08Z</time>
      </trkpt>
      <trkpt lat="49.12245" lon="-0.51214">
        <ele>62</ele>
        <time>2021-02-17T06:27:10Z</time>
      </trkpt>
      <trkpt lat="49.12236" lon="-0.51209">
        <ele>63</ele>
        <time>2021-02-17T06:27:12Z</time>
      </trkpt>
      <trkpt lat="49.1212" lon="-0.51091">
        <ele>73</ele>
        <time>2021-02-17T06:27:45Z</time>
      </trkpt>
      <trkpt lat="49.1212" lon="-0.51077">
        <ele>73</ele>
        <time>2021-02-17T06:27:47Z</time>
      </trkpt>
      <trkpt lat="49.12151" lon="-0.50975">
        <ele>70</ele>
        <time>2021-02-17T06:28:04Z</time>
      </trkpt>
      <trkpt lat="49.12169" lon="-0.50893">
        <ele>67</ele>
        <time>2021-02-17T06:28:17Z</time>
      </trkpt>
      <trkpt lat="49.12186" lon="-0.50835">
        <ele>64</ele>
        <time>2021-02-17T06:28:27Z</time>
      </trkpt>
      <trkpt lat="49.12194" lon="-0.50817">
        <ele>64</ele>
        <time>2021-02-17T06:28:31Z</time>
      </trkpt>
      <trkpt lat="49.12204" lon="-0.50808">
        <ele>64</ele>
        <time>2021-02-17T06:28:33Z</time>
      </trkpt>
      <trkpt lat="49.12237" lon="-0.50854">
        <ele>64</ele>
        <time>2021-02-17T06:28:44Z</time>
      </trkpt>
      <trkpt lat="49.12247" lon="-0.50862">
        <ele>64</ele>
        <time>2021-02-17T06:28:46Z</time>
      </trkpt>
      <trkpt lat="49.12249" lon="-0.50848">
        <ele>64</ele>
        <time>2021-02-17T06:28:48Z</time>
      </trkpt>
      <trkpt lat="49.12256" lon="-0.50832">
        <ele>64</ele>
        <time>2021-02-17T06:28:51Z</time>
      </trkpt>
      <trkpt lat="49.12276" lon="-0.50797">
        <ele>65</ele>
        <time>2021-02-17T06:28:59Z</time>
      </trkpt>
      <trkpt lat="49.12282" lon="-0.5078">
        <ele>66</ele>
        <time>2021-02-17T06:29:01Z</time>
      </trkpt>
      <trkpt lat="49.12283" lon="-0.50765">
        <ele>66</ele>
        <time>2021-02-17T06:29:04Z</time>
      </trkpt>
      <trkpt lat="49.12294" lon="-0.50749">
        <ele>67</ele>
        <time>2021-02-17T06:29:07Z</time>
      </trkpt>
      <trkpt lat="49.12332" lon="-0.50703">
        <ele>69</ele>
        <time>2021-02-17T06:29:19Z</time>
      </trkpt>
      <trkpt lat="49.12346" lon="-0.5068">
        <ele>69</ele>
        <time>2021-02-17T06:29:23Z</time>
      </trkpt>
      <trkpt lat="49.1239" lon="-0.50624">
        <ele>70</ele>
        <time>2021-02-17T06:29:37Z</time>
      </trkpt>
      <trkpt lat="49.12398" lon="-0.50608">
        <ele>71</ele>
        <time>2021-02-17T06:29:40Z</time>
      </trkpt>
      <trkpt lat="49.12448" lon="-0.50546">
        <ele>71</ele>
        <time>2021-02-17T06:29:55Z</time>
      </trkpt>
      <trkpt lat="49.12473" lon="-0.50531">
        <ele>71</ele>
        <time>2021-02-17T06:30:01Z</time>
      </trkpt>
      <trkpt lat="49.12495" lon="-0.50523">
        <ele>71</ele>
        <time>2021-02-17T06:30:06Z</time>
      </trkpt>
      <trkpt lat="49.12516" lon="-0.5051">
        <ele>70</ele>
        <time>2021-02-17T06:30:12Z</time>
      </trkpt>
      <trkpt lat="49.12525" lon="-0.505">
        <ele>70</ele>
        <time>2021-02-17T06:30:14Z</time>
      </trkpt>
      <trkpt lat="49.12556" lon="-0.50459">
        <ele>70</ele>
        <time>2021-02-17T06:30:24Z</time>
      </trkpt>
      <trkpt lat="49.12563" lon="-0.50429">
        <ele>70</ele>
        <time>2021-02-17T06:30:29Z</time>
      </trkpt>
      <trkpt lat="49.1257" lon="-0.50416">
        <ele>70</ele>
        <time>2021-02-17T06:30:31Z</time>
      </trkpt>
      <trkpt lat="49.12583" lon="-0.50425">
        <ele>70</ele>
        <time>2021-02-17T06:30:35Z</time>
      </trkpt>
      <trkpt lat="49.1264" lon="-0.50486">
        <ele>61</ele>
        <time>2021-02-17T06:30:51Z</time>
      </trkpt>
      <trkpt lat="49.12647" lon="-0.50497">
        <ele>59</ele>
        <time>2021-02-17T06:30:53Z</time>
      </trkpt>
      <trkpt lat="49.12661" lon="-0.50501">
        <ele>56</ele>
        <time>2021-02-17T06:30:57Z</time>
      </trkpt>
      <trkpt lat="49.12671" lon="-0.50499">
        <ele>55</ele>
        <time>2021-02-17T06:30:59Z</time>
      </trkpt>
      <trkpt lat="49.12683" lon="-0.50493">
        <ele>54</ele>
        <time>2021-02-17T06:31:02Z</time>
      </trkpt>
      <trkpt lat="49.12716" lon="-0.50436">
        <ele>56</ele>
        <time>2021-02-17T06:31:14Z</time>
      </trkpt>
      <trkpt lat="49.12744" lon="-0.5037">
        <ele>57</ele>
        <time>2021-02-17T06:31:26Z</time>
      </trkpt>
      <trkpt lat="49.12763" lon="-0.50254">
        <ele>61</ele>
        <time>2021-02-17T06:31:44Z</time>
      </trkpt>
      <trkpt lat="49.12759" lon="-0.50204">
        <ele>62</ele>
        <time>2021-02-17T06:31:52Z</time>
      </trkpt>
      <trkpt lat="49.12752" lon="-0.5018">
        <ele>64</ele>
        <time>2021-02-17T06:31:56Z</time>
      </trkpt>
      <trkpt lat="49.12755" lon="-0.50168">
        <ele>63</ele>
        <time>2021-02-17T06:31:58Z</time>
      </trkpt>
      <trkpt lat="49.12763" lon="-0.50165">
        <ele>61</ele>
        <time>2021-02-17T06:31:59Z</time>
      </trkpt>
      <trkpt lat="49.12771" lon="-0.50173">
        <ele>60</ele>
        <time>2021-02-17T06:32:02Z</time>
      </trkpt>
      <trkpt lat="49.12797" lon="-0.50171">
        <ele>54</ele>
        <time>2021-02-17T06:32:08Z</time>
      </trkpt>
      <trkpt lat="49.12815" lon="-0.50131">
        <ele>52</ele>
        <time>2021-02-17T06:32:15Z</time>
      </trkpt>
      <trkpt lat="49.12823" lon="-0.50096">
        <ele>51</ele>
        <time>2021-02-17T06:32:21Z</time>
      </trkpt>
      <trkpt lat="49.12838" lon="-0.5006">
        <ele>51</ele>
        <time>2021-02-17T06:32:27Z</time>
      </trkpt>
      <trkpt lat="49.12853" lon="-0.50008">
        <ele>52</ele>
        <time>2021-02-17T06:32:36Z</time>
      </trkpt>
      <trkpt lat="49.12862" lon="-0.4999">
        <ele>53</ele>
        <time>2021-02-17T06:32:40Z</time>
      </trkpt>
      <trkpt lat="49.12879" lon="-0.49969">
        <ele>52</ele>
        <time>2021-02-17T06:32:45Z</time>
      </trkpt>
      <trkpt lat="49.12892" lon="-0.49956">
        <ele>52</ele>
        <time>2021-02-17T06:32:48Z</time>
      </trkpt>
      <trkpt lat="49.12903" lon="-0.49949">
        <ele>51</ele>
        <time>2021-02-17T06:32:51Z</time>
      </trkpt>
      <trkpt lat="49.12935" lon="-0.49937">
        <ele>50</ele>
        <time>2021-02-17T06:32:59Z</time>
      </trkpt>
      <trkpt lat="49.12971" lon="-0.49928">
        <ele>49</ele>
        <time>2021-02-17T06:33:07Z</time>
      </trkpt>
      <trkpt lat="49.13024" lon="-0.49893">
        <ele>49</ele>
        <time>2021-02-17T06:33:21Z</time>
      </trkpt>
      <trkpt lat="49.13034" lon="-0.49889">
        <ele>48</ele>
        <time>2021-02-17T06:33:23Z</time>
      </trkpt>
      <trkpt lat="49.13045" lon="-0.49892">
        <ele>48</ele>
        <time>2021-02-17T06:33:26Z</time>
      </trkpt>
      <trkpt lat="49.13053" lon="-0.49865">
        <ele>48</ele>
        <time>2021-02-17T06:33:30Z</time>
      </trkpt>
      <trkpt lat="49.13055" lon="-0.49849">
        <ele>49</ele>
        <time>2021-02-17T06:33:33Z</time>
      </trkpt>
      <trkpt lat="49.13053" lon="-0.49832">
        <ele>50</ele>
        <time>2021-02-17T06:33:35Z</time>
      </trkpt>
      <trkpt lat="49.13037" lon="-0.49795">
        <ele>53</ele>
        <time>2021-02-17T06:33:42Z</time>
      </trkpt>
      <trkpt lat="49.13016" lon="-0.4976">
        <ele>56</ele>
        <time>2021-02-17T06:33:49Z</time>
      </trkpt>
      <trkpt lat="49.13005" lon="-0.49735">
        <ele>57</ele>
        <time>2021-02-17T06:33:54Z</time>
      </trkpt>
      <trkpt lat="49.12995" lon="-0.49705">
        <ele>56</ele>
        <time>2021-02-17T06:33:59Z</time>
      </trkpt>
      <trkpt lat="49.12989" lon="-0.49678">
        <ele>56</ele>
        <time>2021-02-17T06:34:04Z</time>
      </trkpt>
      <trkpt lat="49.12988" lon="-0.49646">
        <ele>57</ele>
        <time>2021-02-17T06:34:08Z</time>
      </trkpt>
      <trkpt lat="49.12993" lon="-0.49597">
        <ele>58</ele>
        <time>2021-02-17T06:34:16Z</time>
      </trkpt>
      <trkpt lat="49.13005" lon="-0.49532">
        <ele>60</ele>
        <time>2021-02-17T06:34:26Z</time>
      </trkpt>
      <trkpt lat="49.13003" lon="-0.49515">
        <ele>61</ele>
        <time>2021-02-17T06:34:29Z</time>
      </trkpt>
      <trkpt lat="49.12992" lon="-0.4948">
        <ele>61</ele>
        <time>2021-02-17T06:34:35Z</time>
      </trkpt>
      <trkpt lat="49.12978" lon="-0.4945">
        <ele>61</ele>
        <time>2021-02-17T06:34:41Z</time>
      </trkpt>
      <trkpt lat="49.12962" lon="-0.49423">
        <ele>61</ele>
        <time>2021-02-17T06:34:46Z</time>
      </trkpt>
      <trkpt lat="49.12934" lon="-0.49384">
        <ele>62</ele>
        <time>2021-02-17T06:34:55Z</time>
      </trkpt>
      <trkpt lat="49.12913" lon="-0.49365">
        <ele>63</ele>
        <time>2021-02-17T06:35:01Z</time>
      </trkpt>
      <trkpt lat="49.12902" lon="-0.49358">
        <ele>64</ele>
        <time>2021-02-17T06:35:03Z</time>
      </trkpt>
      <trkpt lat="49.12879" lon="-0.49349">
        <ele>65</ele>
        <time>2021-02-17T06:35:09Z</time>
      </trkpt>
      <trkpt lat="49.12856" lon="-0.49345">
        <ele>66</ele>
        <time>2021-02-17T06:35:14Z</time>
      </trkpt>
      <trkpt lat="49.12852" lon="-0.49333">
        <ele>66</ele>
        <time>2021-02-17T06:35:16Z</time>
      </trkpt>
      <trkpt lat="49.12856" lon="-0.49317">
        <ele>67</ele>
        <time>2021-02-17T06:35:19Z</time>
      </trkpt>
      <trkpt lat="49.12869" lon="-0.49285">
        <ele>67</ele>
        <time>2021-02-17T06:35:25Z</time>
      </trkpt>
      <trkpt lat="49.12954" lon="-0.49131">
        <ele>66</ele>
        <time>2021-02-17T06:35:56Z</time>
      </trkpt>
      <trkpt lat="49.13008" lon="-0.49019">
        <ele>65</ele>
        <time>2021-02-17T06:36:17Z</time>
      </trkpt>
      <trkpt lat="49.13024" lon="-0.48998">
        <ele>65</ele>
        <time>2021-02-17T06:36:22Z</time>
      </trkpt>
      <trkpt lat="49.13033" lon="-0.48991">
        <ele>65</ele>
        <time>2021-02-17T06:36:24Z</time>
      </trkpt>
      <trkpt lat="49.13044" lon="-0.4899">
        <ele>64</ele>
        <time>2021-02-17T06:36:27Z</time>
      </trkpt>
      <trkpt lat="49.13066" lon="-0.48994">
        <ele>63</ele>
        <time>2021-02-17T06:36:32Z</time>
      </trkpt>
      <trkpt lat="49.13125" lon="-0.49015">
        <ele>60</ele>
        <time>2021-02-17T06:36:46Z</time>
      </trkpt>
      <trkpt lat="49.13157" lon="-0.49023">
        <ele>59</ele>
        <time>2021-02-17T06:36:54Z</time>
      </trkpt>
      <trkpt lat="49.13159" lon="-0.49011">
        <ele>59</ele>
        <time>2021-02-17T06:36:56Z</time>
      </trkpt>
      <trkpt lat="49.13148" lon="-0.48987">
        <ele>60</ele>
        <time>2021-02-17T06:37:00Z</time>
      </trkpt>
      <trkpt lat="49.13131" lon="-0.48963">
        <ele>62</ele>
        <time>2021-02-17T06:37:05Z</time>
      </trkpt>
      <trkpt lat="49.13093" lon="-0.48915">
        <ele>65</ele>
        <time>2021-02-17T06:37:17Z</time>
      </trkpt>
      <trkpt lat="49.13082" lon="-0.48905">
        <ele>66</ele>
        <time>2021-02-17T06:37:20Z</time>
      </trkpt>
      <trkpt lat="49.13055" lon="-0.48869">
        <ele>67</ele>
        <time>2021-02-17T06:37:28Z</time>
      </trkpt>
      <trkpt lat="49.13036" lon="-0.48851">
        <ele>67</ele>
        <time>2021-02-17T06:37:34Z</time>
      </trkpt>
      <trkpt lat="49.13011" lon="-0.48815">
        <ele>69</ele>
        <time>2021-02-17T06:37:42Z</time>
      </trkpt>
      <trkpt lat="49.12989" lon="-0.48796">
        <ele>69</ele>
        <time>2021-02-17T06:37:47Z</time>
      </trkpt>
      <trkpt lat="49.12958" lon="-0.48761">
        <ele>71</ele>
        <time>2021-02-17T06:37:56Z</time>
      </trkpt>
      <trkpt lat="49.12942" lon="-0.48737">
        <ele>72</ele>
        <time>2021-02-17T06:38:02Z</time>
      </trkpt>
      <trkpt lat="49.12847" lon="-0.48619">
        <ele>76</ele>
        <time>2021-02-17T06:38:30Z</time>
      </trkpt>
      <trkpt lat="49.12754" lon="-0.48521">
        <ele>82</ele>
        <time>2021-02-17T06:38:57Z</time>
      </trkpt>
      <trkpt lat="49.12749" lon="-0.48507">
        <ele>83</ele>
        <time>2021-02-17T06:38:59Z</time>
      </trkpt>
      <trkpt lat="49.1276" lon="-0.48476">
        <ele>82</ele>
        <time>2021-02-17T06:39:04Z</time>
      </trkpt>
      <trkpt lat="49.12786" lon="-0.48422">
        <ele>80</ele>
        <time>2021-02-17T06:39:15Z</time>
      </trkpt>
      <trkpt lat="49.12788" lon="-0.48408">
        <ele>80</ele>
        <time>2021-02-17T06:39:17Z</time>
      </trkpt>
      <trkpt lat="49.12784" lon="-0.48395">
        <ele>81</ele>
        <time>2021-02-17T06:39:19Z</time>
      </trkpt>
      <trkpt lat="49.12758" lon="-0.4836">
        <ele>83</ele>
        <time>2021-02-17T06:39:27Z</time>
      </trkpt>
      <trkpt lat="49.12748" lon="-0.48329">
        <ele>84</ele>
        <time>2021-02-17T06:39:32Z</time>
      </trkpt>
      <trkpt lat="49.12741" lon="-0.48298">
        <ele>85</ele>
        <time>2021-02-17T06:39:37Z</time>
      </trkpt>
      <trkpt lat="49.1274" lon="-0.48283">
        <ele>85</ele>
        <time>2021-02-17T06:39:40Z</time>
      </trkpt>
      <trkpt lat="49.1284" lon="-0.48118">
        <ele>82</ele>
        <time>2021-02-17T06:40:14Z</time>
      </trkpt>
      <trkpt lat="49.12905" lon="-0.48026">
        <ele>80</ele>
        <time>2021-02-17T06:40:35Z</time>
      </trkpt>
      <trkpt lat="49.12917" lon="-0.48013">
        <ele>80</ele>
        <time>2021-02-17T06:40:38Z</time>
      </trkpt>
      <trkpt lat="49.13002" lon="-0.47884">
        <ele>81</ele>
        <time>2021-02-17T06:41:06Z</time>
      </trkpt>
      <trkpt lat="49.13025" lon="-0.47854">
        <ele>81</ele>
        <time>2021-02-17T06:41:13Z</time>
      </trkpt>
      <trkpt lat="49.13043" lon="-0.47821">
        <ele>81</ele>
        <time>2021-02-17T06:41:20Z</time>
      </trkpt>
      <trkpt lat="49.13102" lon="-0.47731">
        <ele>82</ele>
        <time>2021-02-17T06:41:39Z</time>
      </trkpt>
      <trkpt lat="49.13135" lon="-0.47682">
        <ele>81</ele>
        <time>2021-02-17T06:41:50Z</time>
      </trkpt>
      <trkpt lat="49.13143" lon="-0.47677">
        <ele>81</ele>
        <time>2021-02-17T06:41:52Z</time>
      </trkpt>
      <trkpt lat="49.13152" lon="-0.47683">
        <ele>81</ele>
        <time>2021-02-17T06:41:54Z</time>
      </trkpt>
      <trkpt lat="49.13189" lon="-0.47737">
        <ele>80</ele>
        <time>2021-02-17T06:42:06Z</time>
      </trkpt>
      <trkpt lat="49.13196" lon="-0.47753">
        <ele>80</ele>
        <time>2021-02-17T06:42:09Z</time>
      </trkpt>
      <trkpt lat="49.13244" lon="-0.47832">
        <ele>79</ele>
        <time>2021-02-17T06:42:26Z</time>
      </trkpt>
      <trkpt lat="49.1326" lon="-0.47851">
        <ele>79</ele>
        <time>2021-02-17T06:42:31Z</time>
      </trkpt>
      <trkpt lat="49.13276" lon="-0.47876">
        <ele>79</ele>
        <time>2021-02-17T06:42:36Z</time>
      </trkpt>
      <trkpt lat="49.13273" lon="-0.47889">
        <ele>79</ele>
        <time>2021-02-17T06:42:38Z</time>
      </trkpt>
      <trkpt lat="49.13265" lon="-0.47896">
        <ele>79</ele>
        <time>2021-02-17T06:42:40Z</time>
      </trkpt>
      <trkpt lat="49.13264" lon="-0.47912">
        <ele>79</ele>
        <time>2021-02-17T06:42:43Z</time>
      </trkpt>
      <trkpt lat="49.13293" lon="-0.48001">
        <ele>78</ele>
        <time>2021-02-17T06:42:58Z</time>
      </trkpt>
      <trkpt lat="49.133" lon="-0.48019">
        <ele>78</ele>
        <time>2021-02-17T06:23:13Z</time>
      </trkpt>
      <trkpt lat="49.13304" lon="-0.48036">
        <ele>78</ele>
        <time>2021-02-17T06:23:10Z</time>
      </trkpt>
      <trkpt lat="49.13313" lon="-0.48046">
        <ele>78</ele>
        <time>2021-02-17T06:23:07Z</time>
      </trkpt>
      <trkpt lat="49.13325" lon="-0.48045">
        <ele>78</ele>
        <time>2021-02-17T06:23:04Z</time>
      </trkpt>
      <trkpt lat="49.13338" lon="-0.48035">
        <ele>79</ele>
        <time>2021-02-17T06:23:01Z</time>
      </trkpt>
      <trkpt lat="49.13351" lon="-0.48029">
        <ele>80</ele>
        <time>2021-02-17T06:22:58Z</time>
      </trkpt>
      <trkpt lat="49.13364" lon="-0.48024">
        <ele>81</ele>
        <time>2021-02-17T06:22:55Z</time>
      </trkpt>
      <trkpt lat="49.13376" lon="-0.48015">
        <ele>81</ele>
        <time>2021-02-17T06:22:52Z</time>
      </trkpt>
      <trkpt lat="49.13389" lon="-0.48011">
        <ele>82</ele>
        <time>2021-02-17T06:22:48Z</time>
      </trkpt>
      <trkpt lat="49.13417" lon="-0.4801">
        <ele>84</ele>
        <time>2021-02-17T06:22:42Z</time>
      </trkpt>
      <trkpt lat="49.13427" lon="-0.48016">
        <ele>84</ele>
        <time>2021-02-17T06:22:39Z</time>
      </trkpt>
      <trkpt lat="49.13435" lon="-0.4803">
        <ele>83</ele>
        <time>2021-02-17T06:22:37Z</time>
      </trkpt>
      <trkpt lat="49.13441" lon="-0.48045">
        <ele>83</ele>
        <time>2021-02-17T06:22:34Z</time>
      </trkpt>
      <trkpt lat="49.13451" lon="-0.4805">
        <ele>83</ele>
        <time>2021-02-17T06:22:31Z</time>
      </trkpt>
      <trkpt lat="49.13463" lon="-0.48048">
        <ele>82</ele>
        <time>2021-02-17T06:22:29Z</time>
      </trkpt>
      <trkpt lat="49.13473" lon="-0.48052">
        <ele>82</ele>
        <time>2021-02-17T06:22:26Z</time>
      </trkpt>
      <trkpt lat="49.13485" lon="-0.48052">
        <ele>81</ele>
        <time>2021-02-17T06:22:23Z</time>
      </trkpt>
      <trkpt lat="49.1349" lon="-0.4804">
        <ele>81</ele>
        <time>2021-02-17T06:22:21Z</time>
      </trkpt>
      <trkpt lat="49.13495" lon="-0.48026">
        <ele>81</ele>
        <time>2021-02-17T06:22:19Z</time>
      </trkpt>
      <trkpt lat="49.13496" lon="-0.48006">
        <ele>80</ele>
        <time>2021-02-17T06:22:16Z</time>
      </trkpt>
      <trkpt lat="49.13494" lon="-0.47989">
        <ele>80</ele>
        <time>2021-02-17T06:22:13Z</time>
      </trkpt>
      <trkpt lat="49.13488" lon="-0.47967">
        <ele>80</ele>
        <time>2021-02-17T06:22:09Z</time>
      </trkpt>
      <trkpt lat="49.13484" lon="-0.47947">
        <ele>80</ele>
        <time>2021-02-17T06:22:06Z</time>
      </trkpt>
      <trkpt lat="49.1348" lon="-0.47932">
        <ele>80</ele>
        <time>2021-02-17T06:22:04Z</time>
      </trkpt>
      <trkpt lat="49.13484" lon="-0.47916">
        <ele>80</ele>
        <time>2021-02-17T06:22:01Z</time>
      </trkpt>
      <trkpt lat="49.13492" lon="-0.47907">
        <ele>80</ele>
        <time>2021-02-17T06:21:59Z</time>
      </trkpt>
      <trkpt lat="49.13503" lon="-0.47895">
        <ele>80</ele>
        <time>2021-02-17T06:21:56Z</time>
      </trkpt>
      <trkpt lat="49.1353" lon="-0.47869">
        <ele>81</ele>
        <time>2021-02-17T06:21:48Z</time>
      </trkpt>
      <trkpt lat="49.13548" lon="-0.47848">
        <ele>82</ele>
        <time>2021-02-17T06:21:43Z</time>
      </trkpt>
      <trkpt lat="49.13557" lon="-0.47839">
        <ele>82</ele>
        <time>2021-02-17T06:21:40Z</time>
      </trkpt>
      <trkpt lat="49.13564" lon="-0.47829">
        <ele>83</ele>
        <time>2021-02-17T06:21:38Z</time>
      </trkpt>
      <trkpt lat="49.13573" lon="-0.47828">
        <ele>83</ele>
        <time>2021-02-17T06:21:36Z</time>
      </trkpt>
      <trkpt lat="49.13568" lon="-0.47814">
        <ele>83</ele>
        <time>2021-02-17T06:21:34Z</time>
      </trkpt>
      <trkpt lat="49.13551" lon="-0.47771">
        <ele>83</ele>
        <time>2021-02-17T06:21:26Z</time>
      </trkpt>
      <trkpt lat="49.13545" lon="-0.47757">
        <ele>83</ele>
        <time>2021-02-17T06:21:23Z</time>
      </trkpt>
      <trkpt lat="49.1354" lon="-0.47744">
        <ele>82</ele>
        <time>2021-02-17T06:21:21Z</time>
      </trkpt>
      <trkpt lat="49.13516" lon="-0.47691">
        <ele>82</ele>
        <time>2021-02-17T06:21:11Z</time>
      </trkpt>
      <trkpt lat="49.13505" lon="-0.47665">
        <ele>81</ele>
        <time>2021-02-17T06:21:07Z</time>
      </trkpt>
      <trkpt lat="49.13494" lon="-0.47641">
        <ele>80</ele>
        <time>2021-02-17T06:21:02Z</time>
      </trkpt>
      <trkpt lat="49.13486" lon="-0.47626">
        <ele>80</ele>
        <time>2021-02-17T06:20:59Z</time>
      </trkpt>
      <trkpt lat="49.13477" lon="-0.47624">
        <ele>80</ele>
        <time>2021-02-17T06:20:57Z</time>
      </trkpt>
      <trkpt lat="49.13467" lon="-0.47633">
        <ele>80</ele>
        <time>2021-02-17T06:20:54Z</time>
      </trkpt>
      <trkpt lat="49.13456" lon="-0.47643">
        <ele>79</ele>
        <time>2021-02-17T06:20:51Z</time>
      </trkpt>
      <trkpt lat="49.13448" lon="-0.4765">
        <ele>79</ele>
        <time>2021-02-17T06:20:49Z</time>
      </trkpt>
      <trkpt lat="49.13438" lon="-0.47658">
        <ele>79</ele>
        <time>2021-02-17T06:20:46Z</time>
      </trkpt>
      <trkpt lat="49.13429" lon="-0.47667">
        <ele>78</ele>
        <time>2021-02-17T06:20:44Z</time>
      </trkpt>
      <trkpt lat="49.13421" lon="-0.47677">
        <ele>78</ele>
        <time>2021-02-17T06:20:42Z</time>
      </trkpt>
      <trkpt lat="49.13412" lon="-0.47688">
        <ele>78</ele>
        <time>2021-02-17T06:20:39Z</time>
      </trkpt>
      <trkpt lat="49.13404" lon="-0.47699">
        <ele>79</ele>
        <time>2021-02-17T06:20:36Z</time>
      </trkpt>
      <trkpt lat="49.13397" lon="-0.4771">
        <ele>79</ele>
        <time>2021-02-17T06:20:34Z</time>
      </trkpt>
      <trkpt lat="49.1339" lon="-0.47723">
        <ele>79</ele>
        <time>2021-02-17T06:20:31Z</time>
      </trkpt>
      <trkpt lat="49.13384" lon="-0.47735">
        <ele>79</ele>
        <time>2021-02-17T06:20:29Z</time>
      </trkpt>
      <trkpt lat="49.13374" lon="-0.4776">
        <ele>80</ele>
        <time>2021-02-17T06:20:25Z</time>
      </trkpt>
      <trkpt lat="49.13362" lon="-0.47784">
        <ele>80</ele>
        <time>2021-02-17T06:20:20Z</time>
      </trkpt>
      <trkpt lat="49.13355" lon="-0.47795">
        <ele>80</ele>
        <time>2021-02-17T06:20:18Z</time>
      </trkpt>
      <trkpt lat="49.13347" lon="-0.47788">
        <ele>80</ele>
        <time>2021-02-17T06:20:16Z</time>
      </trkpt>
      <trkpt lat="49.13339" lon="-0.47775">
        <ele>80</ele>
        <time>2021-02-17T06:20:13Z</time>
      </trkpt>
      <trkpt lat="49.13324" lon="-0.47749">
        <ele>80</ele>
        <time>2021-02-17T06:20:08Z</time>
      </trkpt>
      <trkpt lat="49.13317" lon="-0.47737">
        <ele>80</ele>
        <time>2021-02-17T06:20:05Z</time>
      </trkpt>
      <trkpt lat="49.13311" lon="-0.47725">
        <ele>80</ele>
        <time>2021-02-17T06:20:03Z</time>
      </trkpt>
      <trkpt lat="49.13304" lon="-0.47715">
        <ele>80</ele>
        <time>2021-02-17T06:20:01Z</time>
      </trkpt>
      <trkpt lat="49.13293" lon="-0.47706">
        <ele>79</ele>
        <time>2021-02-17T06:19:58Z</time>
      </trkpt>
      <trkpt lat="49.13286" lon="-0.47696">
        <ele>80</ele>
        <time>2021-02-17T06:19:55Z</time>
      </trkpt>
      <trkpt lat="49.13278" lon="-0.47686">
        <ele>80</ele>
        <time>2021-02-17T06:19:53Z</time>
      </trkpt>
      <trkpt lat="49.13271" lon="-0.47675">
        <ele>80</ele>
        <time>2021-02-17T06:19:51Z</time>
      </trkpt>
      <trkpt lat="49.13257" lon="-0.47651">
        <ele>80</ele>
        <time>2021-02-17T06:19:46Z</time>
      </trkpt>
      <trkpt lat="49.13235" lon="-0.47616">
        <ele>81</ele>
        <time>2021-02-17T06:19:38Z</time>
      </trkpt>
      <trkpt lat="49.13219" lon="-0.47593">
        <ele>82</ele>
        <time>2021-02-17T06:19:33Z</time>
      </trkpt>
      <trkpt lat="49.13211" lon="-0.47581">
        <ele>82</ele>
        <time>2021-02-17T06:19:31Z</time>
      </trkpt>
      <trkpt lat="49.13209" lon="-0.47568">
        <ele>82</ele>
        <time>2021-02-17T06:19:28Z</time>
      </trkpt>
      <trkpt lat="49.13212" lon="-0.47556">
        <ele>82</ele>
        <time>2021-02-17T06:19:27Z</time>
      </trkpt>
      <trkpt lat="49.13219" lon="-0.47546">
        <ele>82</ele>
        <time>2021-02-17T06:19:24Z</time>
      </trkpt>
      <trkpt lat="49.13226" lon="-0.47534">
        <ele>82</ele>
        <time>2021-02-17T06:19:22Z</time>
      </trkpt>
      <trkpt lat="49.13243" lon="-0.47508">
        <ele>82</ele>
        <time>2021-02-17T06:19:16Z</time>
      </trkpt>
      <trkpt lat="49.13252" lon="-0.47496">
        <ele>82</ele>
        <time>2021-02-17T06:19:13Z</time>
      </trkpt>
      <trkpt lat="49.1326" lon="-0.47487">
        <ele>82</ele>
        <time>2021-02-17T06:19:11Z</time>
      </trkpt>
      <trkpt lat="49.13283" lon="-0.47455">
        <ele>82</ele>
        <time>2021-02-17T06:19:04Z</time>
      </trkpt>
      <trkpt lat="49.13309" lon="-0.47424">
        <ele>82</ele>
        <time>2021-02-17T06:18:56Z</time>
      </trkpt>
      <trkpt lat="49.13317" lon="-0.47412">
        <ele>82</ele>
        <time>2021-02-17T06:18:54Z</time>
      </trkpt>
      <trkpt lat="49.13327" lon="-0.47402">
        <ele>82</ele>
        <time>2021-02-17T06:18:51Z</time>
      </trkpt>
      <trkpt lat="49.13345" lon="-0.4738">
        <ele>82</ele>
        <time>2021-02-17T06:18:45Z</time>
      </trkpt>
      <trkpt lat="49.13354" lon="-0.47371">
        <ele>83</ele>
        <time>2021-02-17T06:18:43Z</time>
      </trkpt>
      <trkpt lat="49.13364" lon="-0.47364">
        <ele>83</ele>
        <time>2021-02-17T06:18:40Z</time>
      </trkpt>
      <trkpt lat="49.13374" lon="-0.47357">
        <ele>83</ele>
        <time>2021-02-17T06:18:38Z</time>
      </trkpt>
      <trkpt lat="49.13384" lon="-0.47352">
        <ele>83</ele>
        <time>2021-02-17T06:18:35Z</time>
      </trkpt>
      <trkpt lat="49.13426" lon="-0.47325">
        <ele>83</ele>
        <time>2021-02-17T06:18:25Z</time>
      </trkpt>
      <trkpt lat="49.13443" lon="-0.47311">
        <ele>84</ele>
        <time>2021-02-17T06:18:20Z</time>
      </trkpt>
      <trkpt lat="49.13498" lon="-0.47255">
        <ele>86</ele>
        <time>2021-02-17T06:18:05Z</time>
      </trkpt>
      <trkpt lat="49.13514" lon="-0.4724">
        <ele>86</ele>
        <time>2021-02-17T06:18:00Z</time>
      </trkpt>
      <trkpt lat="49.13522" lon="-0.47232">
        <ele>86</ele>
        <time>2021-02-17T06:17:58Z</time>
      </trkpt>
      <trkpt lat="49.13532" lon="-0.47218">
        <ele>86</ele>
        <time>2021-02-17T06:17:55Z</time>
      </trkpt>
      <trkpt lat="49.1354" lon="-0.47202">
        <ele>86</ele>
        <time>2021-02-17T06:17:52Z</time>
      </trkpt>
      <trkpt lat="49.13547" lon="-0.47192">
        <ele>86</ele>
        <time>2021-02-17T06:17:50Z</time>
      </trkpt>
      <trkpt lat="49.13554" lon="-0.47181">
        <ele>86</ele>
        <time>2021-02-17T06:17:47Z</time>
      </trkpt>
      <trkpt lat="49.13561" lon="-0.47168">
        <ele>86</ele>
        <time>2021-02-17T06:17:45Z</time>
      </trkpt>
      <trkpt lat="49.1356" lon="-0.47148">
        <ele>86</ele>
        <time>2021-02-17T06:17:42Z</time>
      </trkpt>
      <trkpt lat="49.13554" lon="-0.47101">
        <ele>86</ele>
        <time>2021-02-17T06:17:34Z</time>
      </trkpt>
      <trkpt lat="49.13551" lon="-0.47072">
        <ele>86</ele>
        <time>2021-02-17T06:17:30Z</time>
      </trkpt>
      <trkpt lat="49.1355" lon="-0.47057">
        <ele>86</ele>
        <time>2021-02-17T06:17:27Z</time>
      </trkpt>
      <trkpt lat="49.13546" lon="-0.47027">
        <ele>86</ele>
        <time>2021-02-17T06:17:23Z</time>
      </trkpt>
      <trkpt lat="49.13544" lon="-0.46997">
        <ele>86</ele>
        <time>2021-02-17T06:17:18Z</time>
      </trkpt>
      <trkpt lat="49.13542" lon="-0.46982">
        <ele>86</ele>
        <time>2021-02-17T06:17:16Z</time>
      </trkpt>
      <trkpt lat="49.1354" lon="-0.46967">
        <ele>86</ele>
        <time>2021-02-17T06:17:13Z</time>
      </trkpt>
      <trkpt lat="49.13535" lon="-0.46921">
        <ele>85</ele>
        <time>2021-02-17T06:17:06Z</time>
      </trkpt>
      <trkpt lat="49.13533" lon="-0.46906">
        <ele>85</ele>
        <time>2021-02-17T06:17:04Z</time>
      </trkpt>
      <trkpt lat="49.13532" lon="-0.46891">
        <ele>85</ele>
        <time>2021-02-17T06:17:02Z</time>
      </trkpt>
      <trkpt lat="49.13529" lon="-0.46864">
        <ele>84</ele>
        <time>2021-02-17T06:16:58Z</time>
      </trkpt>
      <trkpt lat="49.13525" lon="-0.46829">
        <ele>84</ele>
        <time>2021-02-17T06:16:52Z</time>
      </trkpt>
      <trkpt lat="49.13522" lon="-0.46798">
        <ele>84</ele>
        <time>2021-02-17T06:16:47Z</time>
      </trkpt>
      <trkpt lat="49.1352" lon="-0.46785">
        <ele>84</ele>
        <time>2021-02-17T06:16:45Z</time>
      </trkpt>
      <trkpt lat="49.13526" lon="-0.46775">
        <ele>84</ele>
        <time>2021-02-17T06:16:43Z</time>
      </trkpt>
      <trkpt lat="49.13535" lon="-0.46777">
        <ele>84</ele>
        <time>2021-02-17T06:16:41Z</time>
      </trkpt>
      <trkpt lat="49.13579" lon="-0.46796">
        <ele>84</ele>
        <time>2021-02-17T06:16:30Z</time>
      </trkpt>
      <trkpt lat="49.13591" lon="-0.46802">
        <ele>84</ele>
        <time>2021-02-17T06:16:27Z</time>
      </trkpt>
      <trkpt lat="49.13603" lon="-0.46806">
        <ele>84</ele>
        <time>2021-02-17T06:16:25Z</time>
      </trkpt>
      <trkpt lat="49.13612" lon="-0.46812">
        <ele>84</ele>
        <time>2021-02-17T06:16:22Z</time>
      </trkpt>
      <trkpt lat="49.13635" lon="-0.46823">
        <ele>83</ele>
        <time>2021-02-17T06:16:17Z</time>
      </trkpt>
      <trkpt lat="49.13647" lon="-0.46828">
        <ele>83</ele>
        <time>2021-02-17T06:16:14Z</time>
      </trkpt>
      <trkpt lat="49.13672" lon="-0.46837">
        <ele>82</ele>
        <time>2021-02-17T06:16:08Z</time>
      </trkpt>
      <trkpt lat="49.13695" lon="-0.46846">
        <ele>81</ele>
        <time>2021-02-17T06:16:02Z</time>
      </trkpt>
      <trkpt lat="49.13718" lon="-0.46854">
        <ele>81</ele>
        <time>2021-02-17T06:15:57Z</time>
      </trkpt>
      <trkpt lat="49.13727" lon="-0.46857">
        <ele>81</ele>
        <time>2021-02-17T06:15:55Z</time>
      </trkpt>
      <trkpt lat="49.13737" lon="-0.46863">
        <ele>81</ele>
        <time>2021-02-17T06:15:52Z</time>
      </trkpt>
      <trkpt lat="49.13747" lon="-0.46866">
        <ele>80</ele>
        <time>2021-02-17T06:15:50Z</time>
      </trkpt>
      <trkpt lat="49.13777" lon="-0.4688">
        <ele>82</ele>
        <time>2021-02-17T06:15:42Z</time>
      </trkpt>
      <trkpt lat="49.13824" lon="-0.46905">
        <ele>84</ele>
        <time>2021-02-17T06:15:31Z</time>
      </trkpt>
      <trkpt lat="49.13849" lon="-0.46915">
        <ele>83</ele>
        <time>2021-02-17T06:15:25Z</time>
      </trkpt>
      <trkpt lat="49.1386" lon="-0.46919">
        <ele>83</ele>
        <time>2021-02-17T06:15:22Z</time>
      </trkpt>
      <trkpt lat="49.1388" lon="-0.46929">
        <ele>82</ele>
        <time>2021-02-17T06:15:17Z</time>
      </trkpt>
      <trkpt lat="49.1389" lon="-0.46935">
        <ele>82</ele>
        <time>2021-02-17T06:15:15Z</time>
      </trkpt>
      <trkpt lat="49.13902" lon="-0.46942">
        <ele>81</ele>
        <time>2021-02-17T06:15:12Z</time>
      </trkpt>
      <trkpt lat="49.13914" lon="-0.46946">
        <ele>81</ele>
        <time>2021-02-17T06:15:09Z</time>
      </trkpt>
      <trkpt lat="49.13937" lon="-0.46957">
        <ele>81</ele>
        <time>2021-02-17T06:15:03Z</time>
      </trkpt>
      <trkpt lat="49.13948" lon="-0.46963">
        <ele>81</ele>
        <time>2021-02-17T06:15:00Z</time>
      </trkpt>
      <trkpt lat="49.13971" lon="-0.4697">
        <ele>81</ele>
        <time>2021-02-17T06:14:55Z</time>
      </trkpt>
      <trkpt lat="49.13982" lon="-0.46978">
        <ele>80</ele>
        <time>2021-02-17T06:14:52Z</time>
      </trkpt>
      <trkpt lat="49.13994" lon="-0.46984">
        <ele>80</ele>
        <time>2021-02-17T06:14:49Z</time>
      </trkpt>
      <trkpt lat="49.14005" lon="-0.46988">
        <ele>80</ele>
        <time>2021-02-17T06:14:47Z</time>
      </trkpt>
      <trkpt lat="49.14016" lon="-0.46993">
        <ele>79</ele>
        <time>2021-02-17T06:14:44Z</time>
      </trkpt>
      <trkpt lat="49.14041" lon="-0.47002">
        <ele>78</ele>
        <time>2021-02-17T06:14:38Z</time>
      </trkpt>
      <trkpt lat="49.14052" lon="-0.47005">
        <ele>78</ele>
        <time>2021-02-17T06:14:35Z</time>
      </trkpt>
      <trkpt lat="49.14074" lon="-0.47015">
        <ele>77</ele>
        <time>2021-02-17T06:14:30Z</time>
      </trkpt>
      <trkpt lat="49.14098" lon="-0.47024">
        <ele>76</ele>
        <time>2021-02-17T06:14:24Z</time>
      </trkpt>
      <trkpt lat="49.14139" lon="-0.47043">
        <ele>76</ele>
        <time>2021-02-17T06:14:14Z</time>
      </trkpt>
      <trkpt lat="49.14151" lon="-0.47046">
        <ele>76</ele>
        <time>2021-02-17T06:14:11Z</time>
      </trkpt>
      <trkpt lat="49.14165" lon="-0.47052">
        <ele>76</ele>
        <time>2021-02-17T06:14:08Z</time>
      </trkpt>
      <trkpt lat="49.14176" lon="-0.47056">
        <ele>76</ele>
        <time>2021-02-17T06:14:05Z</time>
      </trkpt>
      <trkpt lat="49.14197" lon="-0.47068">
        <ele>75</ele>
        <time>2021-02-17T06:14:00Z</time>
      </trkpt>
      <trkpt lat="49.1422" lon="-0.47075">
        <ele>74</ele>
        <time>2021-02-17T06:13:54Z</time>
      </trkpt>
      <trkpt lat="49.14241" lon="-0.47082">
        <ele>73</ele>
        <time>2021-02-17T06:13:49Z</time>
      </trkpt>
      <trkpt lat="49.14288" lon="-0.47103">
        <ele>72</ele>
        <time>2021-02-17T06:13:38Z</time>
      </trkpt>
      <trkpt lat="49.14301" lon="-0.47111">
        <ele>72</ele>
        <time>2021-02-17T06:13:35Z</time>
      </trkpt>
      <trkpt lat="49.14322" lon="-0.47122">
        <ele>71</ele>
        <time>2021-02-17T06:13:30Z</time>
      </trkpt>
      <trkpt lat="49.14335" lon="-0.47127">
        <ele>71</ele>
        <time>2021-02-17T06:13:26Z</time>
      </trkpt>
      <trkpt lat="49.14346" lon="-0.47132">
        <ele>71</ele>
        <time>2021-02-17T06:13:24Z</time>
      </trkpt>
      <trkpt lat="49.14358" lon="-0.47136">
        <ele>70</ele>
        <time>2021-02-17T06:13:21Z</time>
      </trkpt>
      <trkpt lat="49.1437" lon="-0.47142">
        <ele>70</ele>
        <time>2021-02-17T06:13:18Z</time>
      </trkpt>
      <trkpt lat="49.14394" lon="-0.4715">
        <ele>69</ele>
        <time>2021-02-17T06:13:12Z</time>
      </trkpt>
      <trkpt lat="49.14404" lon="-0.47152">
        <ele>69</ele>
        <time>2021-02-17T06:13:10Z</time>
      </trkpt>
      <trkpt lat="49.14412" lon="-0.47147">
        <ele>69</ele>
        <time>2021-02-17T06:13:08Z</time>
      </trkpt>
      <trkpt lat="49.1442" lon="-0.47139">
        <ele>68</ele>
        <time>2021-02-17T06:13:06Z</time>
      </trkpt>
      <trkpt lat="49.14427" lon="-0.47128">
        <ele>66</ele>
        <time>2021-02-17T06:13:03Z</time>
      </trkpt>
      <trkpt lat="49.14432" lon="-0.47112">
        <ele>65</ele>
        <time>2021-02-17T06:13:01Z</time>
      </trkpt>
      <trkpt lat="49.14439" lon="-0.4708">
        <ele>63</ele>
        <time>2021-02-17T06:12:55Z</time>
      </trkpt>
      <trkpt lat="49.14446" lon="-0.47065">
        <ele>61</ele>
        <time>2021-02-17T06:12:53Z</time>
      </trkpt>
      <trkpt lat="49.14442" lon="-0.47051">
        <ele>61</ele>
        <time>2021-02-17T06:12:50Z</time>
      </trkpt>
      <trkpt lat="49.14439" lon="-0.4704">
        <ele>60</ele>
        <time>2021-02-17T06:12:48Z</time>
      </trkpt>
      <trkpt lat="49.14451" lon="-0.47035">
        <ele>58</ele>
        <time>2021-02-17T06:12:46Z</time>
      </trkpt>
      <trkpt lat="49.14466" lon="-0.47033">
        <ele>57</ele>
        <time>2021-02-17T06:12:42Z</time>
      </trkpt>
      <trkpt lat="49.14482" lon="-0.47039">
        <ele>55</ele>
        <time>2021-02-17T06:12:38Z</time>
      </trkpt>
      <trkpt lat="49.14496" lon="-0.47044">
        <ele>54</ele>
        <time>2021-02-17T06:12:35Z</time>
      </trkpt>
      <trkpt lat="49.14504" lon="-0.47061">
        <ele>53</ele>
        <time>2021-02-17T06:12:32Z</time>
      </trkpt>
      <trkpt lat="49.14507" lon="-0.47078">
        <ele>53</ele>
        <time>2021-02-17T06:12:29Z</time>
      </trkpt>
      <trkpt lat="49.14507" lon="-0.47095">
        <ele>53</ele>
        <time>2021-02-17T06:12:26Z</time>
      </trkpt>
      <trkpt lat="49.14515" lon="-0.47108">
        <ele>51</ele>
        <time>2021-02-17T06:12:24Z</time>
      </trkpt>
      <trkpt lat="49.14522" lon="-0.4713">
        <ele>50</ele>
        <time>2021-02-17T06:12:20Z</time>
      </trkpt>
    </trkseg>
  </trk>
</gpx>